<?xml version="1.0" encoding="UTF-8" standalone="no" ?>
<gpx xmlns="http://www.topografix.com/GPX/1/1" xmlns:xsi="http://www.w3.org/2001/XMLSchema-instance" xsi:schemaLocation="http://www.topografix.com/GPX/1/1 http://www.topografix.com/GPX/1/1/gpx.xsd" version="1.1" creator="VisuGPX - https://www.visugpx.com">
  <metadata>
    <name>Vélo Anould-Taintrux-Anould</name>
    <desc><![CDATA[Restauration sympa à Taintrux - Auberge de la Carriole 03 29 50 07 32
Parking aisé à Anould ou au parking du super U.]]></desc>
  </metadata>
  <wpt lat="48.24553" lon="6.90859">
    <ele>390</ele>
    <name><![CDATA[Auberge de la Carriole]]></name>
    <type><![CDATA[restaurant]]></type>
  </wpt>
  <wpt lat="48.24552" lon="6.9087">
    <ele>390.4</ele>
    <name><![CDATA[Auberge]]></name>
    <type><![CDATA[hotel]]></type>
  </wpt>
  <trk>
    <name><![CDATA[Vélo Anould-Taintrux-Anould]]></name>
    <extensions>
      <line xmlns="http://www.topografix.com/GPX/gpx_style/0/2">
        <color>0000FF</color>
        <width>4</width>
      </line>
    </extensions>
    <trkseg>
      <trkpt lat="48.18876" lon="6.95171">
        <ele>453</ele>
        <time>2023-02-16T10:05:22.000Z</time>
      </trkpt>
      <trkpt lat="48.1888" lon="6.9509">
        <ele>452</ele>
        <time>2023-02-16T10:05:43.758Z</time>
      </trkpt>
      <trkpt lat="48.1888" lon="6.9509">
        <ele>452</ele>
        <time>2023-02-16T10:05:43.758Z</time>
      </trkpt>
      <trkpt lat="48.18887" lon="6.95023">
        <ele>452.1</ele>
        <time>2023-02-16T10:06:03.107Z</time>
      </trkpt>
      <trkpt lat="48.18898" lon="6.9486">
        <ele>451</ele>
        <time>2023-02-16T10:06:48.123Z</time>
      </trkpt>
      <trkpt lat="48.18893" lon="6.94821">
        <ele>450.8</ele>
        <time>2023-02-16T10:06:59.119Z</time>
      </trkpt>
      <trkpt lat="48.18848" lon="6.946">
        <ele>449.8</ele>
        <time>2023-02-16T10:08:03.309Z</time>
      </trkpt>
      <trkpt lat="48.18834" lon="6.94514">
        <ele>449</ele>
        <time>2023-02-16T10:08:27.378Z</time>
      </trkpt>
      <trkpt lat="48.18831" lon="6.94502">
        <ele>449</ele>
        <time>2023-02-16T10:08:31.010Z</time>
      </trkpt>
      <trkpt lat="48.18822" lon="6.94484">
        <ele>449.2</ele>
        <time>2023-02-16T10:08:37.655Z</time>
        <extensions>
          <visugpx:TrkExtension xmlns:visugpx="https://www.visugpx.com/editgpx/">
            <visugpx:node>1</visugpx:node>
            </visugpx:TrkExtension>
        </extensions>
      </trkpt>
      <trkpt lat="48.18835" lon="6.94457">
        <ele>448.4</ele>
        <time>2023-02-16T10:08:46.122Z</time>
      </trkpt>
      <trkpt lat="48.18845" lon="6.94441">
        <ele>448</ele>
        <time>2023-02-16T10:08:51.843Z</time>
      </trkpt>
      <trkpt lat="48.18852" lon="6.94434">
        <ele>448</ele>
        <time>2023-02-16T10:08:55.419Z</time>
      </trkpt>
      <trkpt lat="48.18856" lon="6.94437">
        <ele>448</ele>
        <time>2023-02-16T10:08:57.320Z</time>
      </trkpt>
      <trkpt lat="48.18861" lon="6.94436">
        <ele>448</ele>
        <time>2023-02-16T10:08:59.464Z</time>
      </trkpt>
      <trkpt lat="48.18864" lon="6.94433">
        <ele>448</ele>
        <time>2023-02-16T10:09:00.996Z</time>
      </trkpt>
      <trkpt lat="48.18866" lon="6.94426">
        <ele>448</ele>
        <time>2023-02-16T10:09:03.154Z</time>
      </trkpt>
      <trkpt lat="48.18865" lon="6.94418">
        <ele>448</ele>
        <time>2023-02-16T10:09:05.461Z</time>
      </trkpt>
      <trkpt lat="48.18862" lon="6.94413">
        <ele>448</ele>
        <time>2023-02-16T10:09:07.367Z</time>
      </trkpt>
      <trkpt lat="48.18857" lon="6.94411">
        <ele>448</ele>
        <time>2023-02-16T10:09:09.567Z</time>
      </trkpt>
      <trkpt lat="48.18855" lon="6.94377">
        <ele>448</ele>
        <time>2023-02-16T10:09:19.238Z</time>
      </trkpt>
      <trkpt lat="48.18856" lon="6.94351">
        <ele>448</ele>
        <time>2023-02-16T10:09:26.618Z</time>
      </trkpt>
      <trkpt lat="48.18816" lon="6.94311">
        <ele>448</ele>
        <time>2023-02-16T10:09:47.052Z</time>
      </trkpt>
      <trkpt lat="48.18715" lon="6.9422">
        <ele>449.6</ele>
        <time>2023-02-16T10:10:39.287Z</time>
      </trkpt>
      <trkpt lat="48.18693" lon="6.9419">
        <ele>450.2</ele>
        <time>2023-02-16T10:10:52.746Z</time>
      </trkpt>
      <trkpt lat="48.18655" lon="6.94124">
        <ele>451.7</ele>
        <time>2023-02-16T10:11:19.535Z</time>
      </trkpt>
      <trkpt lat="48.1862" lon="6.94068">
        <ele>452.9</ele>
        <time>2023-02-16T10:11:42.940Z</time>
      </trkpt>
      <trkpt lat="48.18595" lon="6.94041">
        <ele>453.2</ele>
        <time>2023-02-16T10:11:56.435Z</time>
      </trkpt>
      <trkpt lat="48.18533" lon="6.93984">
        <ele>455.7</ele>
        <time>2023-02-16T10:12:30.873Z</time>
      </trkpt>
      <trkpt lat="48.18515" lon="6.93977">
        <ele>456.6</ele>
        <time>2023-02-16T10:12:40.089Z</time>
      </trkpt>
      <trkpt lat="48.18497" lon="6.93977">
        <ele>457.6</ele>
        <time>2023-02-16T10:12:49.222Z</time>
      </trkpt>
      <trkpt lat="48.18456" lon="6.93994">
        <ele>459.2</ele>
        <time>2023-02-16T10:13:09.578Z</time>
      </trkpt>
      <trkpt lat="48.18436" lon="6.93993">
        <ele>459.8</ele>
        <time>2023-02-16T10:13:18.922Z</time>
      </trkpt>
      <trkpt lat="48.18421" lon="6.93987">
        <ele>460.8</ele>
        <time>2023-02-16T10:13:27.034Z</time>
        <extensions>
          <visugpx:TrkExtension xmlns:visugpx="https://www.visugpx.com/editgpx/">
            <visugpx:node>2</visugpx:node>
            </visugpx:TrkExtension>
        </extensions>
      </trkpt>
      <trkpt lat="48.18406" lon="6.93969">
        <ele>461.6</ele>
        <time>2023-02-16T10:13:36.347Z</time>
      </trkpt>
      <trkpt lat="48.18386" lon="6.93935">
        <ele>461.9</ele>
        <time>2023-02-16T10:13:49.598Z</time>
      </trkpt>
      <trkpt lat="48.18359" lon="6.93875">
        <ele>461.2</ele>
        <time>2023-02-16T10:14:09.224Z</time>
      </trkpt>
      <trkpt lat="48.18349" lon="6.93857">
        <ele>462.2</ele>
        <time>2023-02-16T10:14:17.376Z</time>
      </trkpt>
      <trkpt lat="48.18335" lon="6.9384">
        <ele>463.1</ele>
        <time>2023-02-16T10:14:26.349Z</time>
      </trkpt>
      <trkpt lat="48.18243" lon="6.93752">
        <ele>469.6</ele>
        <time>2023-02-16T10:15:22.454Z</time>
      </trkpt>
      <trkpt lat="48.18227" lon="6.93735">
        <ele>469.6</ele>
        <time>2023-02-16T10:15:30.788Z</time>
      </trkpt>
      <trkpt lat="48.18178" lon="6.93674">
        <ele>469</ele>
        <time>2023-02-16T10:15:57.086Z</time>
      </trkpt>
      <trkpt lat="48.18157" lon="6.93642">
        <ele>469.4</ele>
        <time>2023-02-16T10:16:10.349Z</time>
      </trkpt>
      <trkpt lat="48.18137" lon="6.93625">
        <ele>470.1</ele>
        <time>2023-02-16T10:16:21.100Z</time>
      </trkpt>
      <trkpt lat="48.18122" lon="6.9361">
        <ele>470.6</ele>
        <time>2023-02-16T10:16:29.459Z</time>
      </trkpt>
      <trkpt lat="48.18099" lon="6.93606">
        <ele>471.3</ele>
        <time>2023-02-16T10:16:40.279Z</time>
      </trkpt>
      <trkpt lat="48.18049" lon="6.93623">
        <ele>473.9</ele>
        <time>2023-02-16T10:17:05.881Z</time>
      </trkpt>
      <trkpt lat="48.18018" lon="6.93629">
        <ele>476.4</ele>
        <time>2023-02-16T10:17:23.093Z</time>
      </trkpt>
      <trkpt lat="48.18003" lon="6.9363">
        <ele>477.5</ele>
        <time>2023-02-16T10:17:31.175Z</time>
      </trkpt>
      <trkpt lat="48.17987" lon="6.9361">
        <ele>478.4</ele>
        <time>2023-02-16T10:17:41.325Z</time>
      </trkpt>
      <trkpt lat="48.17932" lon="6.93506">
        <ele>484.4</ele>
        <time>2023-02-16T10:18:28.098Z</time>
      </trkpt>
      <trkpt lat="48.17906" lon="6.93468">
        <ele>487.5</ele>
        <time>2023-02-16T10:18:48.462Z</time>
      </trkpt>
      <trkpt lat="48.17897" lon="6.93444">
        <ele>488.9</ele>
        <time>2023-02-16T10:18:58.445Z</time>
      </trkpt>
      <trkpt lat="48.17891" lon="6.93405">
        <ele>491.1</ele>
        <time>2023-02-16T10:19:13.265Z</time>
      </trkpt>
      <trkpt lat="48.17892" lon="6.93399">
        <ele>491.1</ele>
        <time>2023-02-16T10:19:15.017Z</time>
      </trkpt>
      <trkpt lat="48.17891" lon="6.93338">
        <ele>493.5</ele>
        <time>2023-02-16T10:19:35.897Z</time>
      </trkpt>
      <trkpt lat="48.17893" lon="6.93231">
        <ele>495.3</ele>
        <time>2023-02-16T10:20:08.725Z</time>
      </trkpt>
      <trkpt lat="48.17897" lon="6.93161">
        <ele>495.8</ele>
        <time>2023-02-16T10:20:29.306Z</time>
      </trkpt>
      <trkpt lat="48.17895" lon="6.93144">
        <ele>495.7</ele>
        <time>2023-02-16T10:20:34.071Z</time>
      </trkpt>
      <trkpt lat="48.17891" lon="6.93119">
        <ele>497.8</ele>
        <time>2023-02-16T10:20:45.022Z</time>
      </trkpt>
      <trkpt lat="48.1788" lon="6.93071">
        <ele>497.2</ele>
        <time>2023-02-16T10:20:58.652Z</time>
        <extensions>
          <visugpx:TrkExtension xmlns:visugpx="https://www.visugpx.com/editgpx/">
            <visugpx:node>3</visugpx:node>
            </visugpx:TrkExtension>
        </extensions>
      </trkpt>
      <trkpt lat="48.17866" lon="6.93021">
        <ele>498.5</ele>
        <time>2023-02-16T10:21:15.863Z</time>
      </trkpt>
      <trkpt lat="48.17853" lon="6.92977">
        <ele>499.5</ele>
        <time>2023-02-16T10:21:30.905Z</time>
      </trkpt>
      <trkpt lat="48.17841" lon="6.92947">
        <ele>500.5</ele>
        <time>2023-02-16T10:21:42.259Z</time>
      </trkpt>
      <trkpt lat="48.17826" lon="6.92917">
        <ele>500.2</ele>
        <time>2023-02-16T10:21:52.504Z</time>
      </trkpt>
      <trkpt lat="48.17814" lon="6.92897">
        <ele>500.9</ele>
        <time>2023-02-16T10:22:01.129Z</time>
      </trkpt>
      <trkpt lat="48.17796" lon="6.92874">
        <ele>502</ele>
        <time>2023-02-16T10:22:12.777Z</time>
      </trkpt>
      <trkpt lat="48.17777" lon="6.92859">
        <ele>503.7</ele>
        <time>2023-02-16T10:22:24.568Z</time>
      </trkpt>
      <trkpt lat="48.17752" lon="6.92841">
        <ele>505.9</ele>
        <time>2023-02-16T10:22:39.805Z</time>
      </trkpt>
      <trkpt lat="48.17666" lon="6.92789">
        <ele>511</ele>
        <time>2023-02-16T10:23:26.768Z</time>
      </trkpt>
      <trkpt lat="48.17637" lon="6.92777">
        <ele>511.9</ele>
        <time>2023-02-16T10:23:40.812Z</time>
      </trkpt>
      <trkpt lat="48.17603" lon="6.9277">
        <ele>512.1</ele>
        <time>2023-02-16T10:23:55.664Z</time>
      </trkpt>
      <trkpt lat="48.17573" lon="6.92765">
        <ele>515.1</ele>
        <time>2023-02-16T10:24:13.435Z</time>
      </trkpt>
      <trkpt lat="48.17539" lon="6.92756">
        <ele>516.8</ele>
        <time>2023-02-16T10:24:30.592Z</time>
      </trkpt>
      <trkpt lat="48.17521" lon="6.92743">
        <ele>517.5</ele>
        <time>2023-02-16T10:24:40.074Z</time>
      </trkpt>
      <trkpt lat="48.17494" lon="6.92705">
        <ele>519.7</ele>
        <time>2023-02-16T10:24:59.103Z</time>
      </trkpt>
      <trkpt lat="48.17397" lon="6.92591">
        <ele>524.7</ele>
        <time>2023-02-16T10:25:58.645Z</time>
      </trkpt>
      <trkpt lat="48.1739" lon="6.92574">
        <ele>524.9</ele>
        <time>2023-02-16T10:26:04.579Z</time>
      </trkpt>
      <trkpt lat="48.17382" lon="6.92567">
        <ele>525.9</ele>
        <time>2023-02-16T10:26:10.198Z</time>
      </trkpt>
      <trkpt lat="48.17353" lon="6.92547">
        <ele>528.5</ele>
        <time>2023-02-16T10:26:27.863Z</time>
      </trkpt>
      <trkpt lat="48.17186" lon="6.92443">
        <ele>541.9</ele>
        <time>2023-02-16T10:28:05.474Z</time>
      </trkpt>
      <trkpt lat="48.17161" lon="6.92425">
        <ele>544</ele>
        <time>2023-02-16T10:28:20.527Z</time>
      </trkpt>
      <trkpt lat="48.17121" lon="6.92392">
        <ele>549</ele>
        <time>2023-02-16T10:28:48.376Z</time>
      </trkpt>
      <trkpt lat="48.17106" lon="6.92376">
        <ele>552.5</ele>
        <time>2023-02-16T10:29:03.513Z</time>
      </trkpt>
      <trkpt lat="48.17087" lon="6.9235">
        <ele>558.1</ele>
        <time>2023-02-16T10:29:27.085Z</time>
      </trkpt>
      <trkpt lat="48.17073" lon="6.92319">
        <ele>561.7</ele>
        <time>2023-02-16T10:29:44.343Z</time>
      </trkpt>
      <trkpt lat="48.17064" lon="6.92289">
        <ele>563.5</ele>
        <time>2023-02-16T10:29:56.509Z</time>
      </trkpt>
      <trkpt lat="48.1705" lon="6.92197">
        <ele>568.8</ele>
        <time>2023-02-16T10:30:31.668Z</time>
      </trkpt>
      <trkpt lat="48.17041" lon="6.92166">
        <ele>572.7</ele>
        <time>2023-02-16T10:30:49.025Z</time>
        <extensions>
          <visugpx:TrkExtension xmlns:visugpx="https://www.visugpx.com/editgpx/">
            <visugpx:node>4</visugpx:node>
            </visugpx:TrkExtension>
        </extensions>
      </trkpt>
      <trkpt lat="48.17029" lon="6.92133">
        <ele>575.9</ele>
        <time>2023-02-16T10:31:05.339Z</time>
      </trkpt>
      <trkpt lat="48.16979" lon="6.92042">
        <ele>586</ele>
        <time>2023-02-16T10:31:56.660Z</time>
      </trkpt>
      <trkpt lat="48.16953" lon="6.91991">
        <ele>590.2</ele>
        <time>2023-02-16T10:32:21.751Z</time>
      </trkpt>
      <trkpt lat="48.16951" lon="6.91982">
        <ele>590.3</ele>
        <time>2023-02-16T10:32:24.576Z</time>
      </trkpt>
      <trkpt lat="48.16947" lon="6.91981">
        <ele>590.1</ele>
        <time>2023-02-16T10:32:26.084Z</time>
      </trkpt>
      <trkpt lat="48.16927" lon="6.91961">
        <ele>593.1</ele>
        <time>2023-02-16T10:32:41.569Z</time>
      </trkpt>
      <trkpt lat="48.16815" lon="6.91869">
        <ele>604.8</ele>
        <time>2023-02-16T10:33:54.752Z</time>
      </trkpt>
      <trkpt lat="48.168" lon="6.91863">
        <ele>604.3</ele>
        <time>2023-02-16T10:34:00.739Z</time>
      </trkpt>
      <trkpt lat="48.16776" lon="6.91848">
        <ele>606.9</ele>
        <time>2023-02-16T10:34:16.079Z</time>
      </trkpt>
      <trkpt lat="48.16726" lon="6.91821">
        <ele>610.8</ele>
        <time>2023-02-16T10:34:44.697Z</time>
      </trkpt>
      <trkpt lat="48.16691" lon="6.91798">
        <ele>613.8</ele>
        <time>2023-02-16T10:35:05.635Z</time>
      </trkpt>
      <trkpt lat="48.16634" lon="6.91745">
        <ele>617.4</ele>
        <time>2023-02-16T10:35:39.455Z</time>
      </trkpt>
      <trkpt lat="48.16592" lon="6.9171">
        <ele>619.5</ele>
        <time>2023-02-16T10:36:02.908Z</time>
      </trkpt>
      <trkpt lat="48.16569" lon="6.91699">
        <ele>619.8</ele>
        <time>2023-02-16T10:36:13.572Z</time>
      </trkpt>
      <trkpt lat="48.16555" lon="6.91706">
        <ele>619.6</ele>
        <time>2023-02-16T10:36:19.591Z</time>
        <extensions>
          <visugpx:TrkExtension xmlns:visugpx="https://www.visugpx.com/editgpx/">
            <visugpx:node>5</visugpx:node>
            </visugpx:TrkExtension>
        </extensions>
      </trkpt>
      <trkpt lat="48.16569" lon="6.91699">
        <ele>619.8</ele>
        <time>2023-02-16T10:36:26.133Z</time>
      </trkpt>
      <trkpt lat="48.1662" lon="6.91665">
        <ele>621.5</ele>
        <time>2023-02-16T10:36:52.236Z</time>
      </trkpt>
      <trkpt lat="48.1666" lon="6.9163">
        <ele>625.1</ele>
        <time>2023-02-16T10:37:17.544Z</time>
      </trkpt>
      <trkpt lat="48.16675" lon="6.91621">
        <ele>626.2</ele>
        <time>2023-02-16T10:37:26.091Z</time>
      </trkpt>
      <trkpt lat="48.1669" lon="6.91606">
        <ele>627.9</ele>
        <time>2023-02-16T10:37:36.519Z</time>
      </trkpt>
      <trkpt lat="48.1671" lon="6.91569">
        <ele>630.9</ele>
        <time>2023-02-16T10:37:54.901Z</time>
      </trkpt>
      <trkpt lat="48.16721" lon="6.91558">
        <ele>631.8</ele>
        <time>2023-02-16T10:38:01.895Z</time>
      </trkpt>
      <trkpt lat="48.16732" lon="6.91551">
        <ele>632.8</ele>
        <time>2023-02-16T10:38:08.558Z</time>
      </trkpt>
      <trkpt lat="48.16758" lon="6.91542">
        <ele>634.4</ele>
        <time>2023-02-16T10:38:22.296Z</time>
      </trkpt>
      <trkpt lat="48.16785" lon="6.91537">
        <ele>636.2</ele>
        <time>2023-02-16T10:38:36.595Z</time>
      </trkpt>
      <trkpt lat="48.16876" lon="6.91534">
        <ele>641.9</ele>
        <time>2023-02-16T10:39:23.873Z</time>
      </trkpt>
      <trkpt lat="48.16944" lon="6.9155">
        <ele>645.4</ele>
        <time>2023-02-16T10:39:58.261Z</time>
      </trkpt>
      <trkpt lat="48.16981" lon="6.9155">
        <ele>646.5</ele>
        <time>2023-02-16T10:40:15.524Z</time>
      </trkpt>
      <trkpt lat="48.17019" lon="6.91557">
        <ele>645.8</ele>
        <time>2023-02-16T10:40:30.916Z</time>
      </trkpt>
      <trkpt lat="48.17044" lon="6.9156">
        <ele>645.4</ele>
        <time>2023-02-16T10:40:41.070Z</time>
      </trkpt>
      <trkpt lat="48.1707" lon="6.91558">
        <ele>645.6</ele>
        <time>2023-02-16T10:40:52.402Z</time>
      </trkpt>
      <trkpt lat="48.17117" lon="6.91548">
        <ele>646.1</ele>
        <time>2023-02-16T10:41:13.249Z</time>
      </trkpt>
      <trkpt lat="48.1717" lon="6.91543">
        <ele>645.3</ele>
        <time>2023-02-16T10:41:34.807Z</time>
      </trkpt>
      <trkpt lat="48.1719" lon="6.91548">
        <ele>644.6</ele>
        <time>2023-02-16T10:41:42.574Z</time>
      </trkpt>
      <trkpt lat="48.17222" lon="6.91568">
        <ele>642.1</ele>
        <time>2023-02-16T10:41:55.467Z</time>
      </trkpt>
      <trkpt lat="48.17232" lon="6.91572">
        <ele>641.7</ele>
        <time>2023-02-16T10:41:59.384Z</time>
      </trkpt>
      <trkpt lat="48.1724" lon="6.91574">
        <ele>641.4</ele>
        <time>2023-02-16T10:42:02.468Z</time>
      </trkpt>
      <trkpt lat="48.17251" lon="6.91574">
        <ele>641.3</ele>
        <time>2023-02-16T10:42:07.015Z</time>
      </trkpt>
      <trkpt lat="48.17288" lon="6.91564">
        <ele>641.1</ele>
        <time>2023-02-16T10:42:22.736Z</time>
      </trkpt>
      <trkpt lat="48.1736" lon="6.91533">
        <ele>644</ele>
        <time>2023-02-16T10:42:58.711Z</time>
        <extensions>
          <visugpx:TrkExtension xmlns:visugpx="https://www.visugpx.com/editgpx/">
            <visugpx:node>6</visugpx:node>
            </visugpx:TrkExtension>
        </extensions>
      </trkpt>
      <trkpt lat="48.17386" lon="6.91533">
        <ele>646.7</ele>
        <time>2023-02-16T10:43:14.258Z</time>
      </trkpt>
      <trkpt lat="48.17402" lon="6.91539">
        <ele>648.4</ele>
        <time>2023-02-16T10:43:24.093Z</time>
      </trkpt>
      <trkpt lat="48.17417" lon="6.9155">
        <ele>650</ele>
        <time>2023-02-16T10:43:33.802Z</time>
      </trkpt>
      <trkpt lat="48.17466" lon="6.91609">
        <ele>651.9</ele>
        <time>2023-02-16T10:44:03.170Z</time>
      </trkpt>
      <trkpt lat="48.17474" lon="6.91625">
        <ele>650.1</ele>
        <time>2023-02-16T10:44:08.130Z</time>
      </trkpt>
      <trkpt lat="48.17488" lon="6.91645">
        <ele>648</ele>
        <time>2023-02-16T10:44:15.321Z</time>
      </trkpt>
      <trkpt lat="48.17505" lon="6.91663">
        <ele>645.9</ele>
        <time>2023-02-16T10:44:23.061Z</time>
      </trkpt>
      <trkpt lat="48.17522" lon="6.91678">
        <ele>644.9</ele>
        <time>2023-02-16T10:44:30.397Z</time>
      </trkpt>
      <trkpt lat="48.17538" lon="6.91689">
        <ele>644.5</ele>
        <time>2023-02-16T10:44:37.379Z</time>
      </trkpt>
      <trkpt lat="48.17563" lon="6.91702">
        <ele>644.2</ele>
        <time>2023-02-16T10:44:48.243Z</time>
      </trkpt>
      <trkpt lat="48.17579" lon="6.91707">
        <ele>644.3</ele>
        <time>2023-02-16T10:44:55.322Z</time>
      </trkpt>
      <trkpt lat="48.17605" lon="6.91713">
        <ele>645.3</ele>
        <time>2023-02-16T10:45:07.927Z</time>
      </trkpt>
      <trkpt lat="48.17643" lon="6.91724">
        <ele>647</ele>
        <time>2023-02-16T10:45:26.830Z</time>
      </trkpt>
      <trkpt lat="48.17671" lon="6.91727">
        <ele>648.3</ele>
        <time>2023-02-16T10:45:40.647Z</time>
      </trkpt>
      <trkpt lat="48.17715" lon="6.9174">
        <ele>647.7</ele>
        <time>2023-02-16T10:45:58.946Z</time>
      </trkpt>
      <trkpt lat="48.17733" lon="6.91747">
        <ele>646.6</ele>
        <time>2023-02-16T10:46:05.862Z</time>
      </trkpt>
      <trkpt lat="48.17747" lon="6.91749">
        <ele>647</ele>
        <time>2023-02-16T10:46:12.396Z</time>
      </trkpt>
      <trkpt lat="48.17753" lon="6.91748">
        <ele>647.7</ele>
        <time>2023-02-16T10:46:16.164Z</time>
      </trkpt>
      <trkpt lat="48.1778" lon="6.91749">
        <ele>649.3</ele>
        <time>2023-02-16T10:46:30.036Z</time>
      </trkpt>
      <trkpt lat="48.17803" lon="6.91754">
        <ele>649.7</ele>
        <time>2023-02-16T10:46:40.457Z</time>
      </trkpt>
      <trkpt lat="48.17836" lon="6.91764">
        <ele>649.4</ele>
        <time>2023-02-16T10:46:54.382Z</time>
      </trkpt>
      <trkpt lat="48.17863" lon="6.9178">
        <ele>649.8</ele>
        <time>2023-02-16T10:47:07.261Z</time>
      </trkpt>
      <trkpt lat="48.17879" lon="6.91788">
        <ele>650.9</ele>
        <time>2023-02-16T10:47:16.097Z</time>
      </trkpt>
      <trkpt lat="48.17912" lon="6.91822">
        <ele>651.3</ele>
        <time>2023-02-16T10:47:33.650Z</time>
      </trkpt>
      <trkpt lat="48.17931" lon="6.91846">
        <ele>651.5</ele>
        <time>2023-02-16T10:47:44.475Z</time>
      </trkpt>
      <trkpt lat="48.17946" lon="6.91867">
        <ele>651.5</ele>
        <time>2023-02-16T10:47:53.197Z</time>
      </trkpt>
      <trkpt lat="48.17975" lon="6.91916">
        <ele>651.6</ele>
        <time>2023-02-16T10:48:11.897Z</time>
      </trkpt>
      <trkpt lat="48.18017" lon="6.91999">
        <ele>653</ele>
        <time>2023-02-16T10:48:43.342Z</time>
      </trkpt>
      <trkpt lat="48.18019" lon="6.92015">
        <ele>652.7</ele>
        <time>2023-02-16T10:48:47.585Z</time>
      </trkpt>
      <trkpt lat="48.18021" lon="6.92067">
        <ele>650</ele>
        <time>2023-02-16T10:49:00.502Z</time>
      </trkpt>
      <trkpt lat="48.18031" lon="6.92117">
        <ele>649.4</ele>
        <time>2023-02-16T10:49:14.540Z</time>
      </trkpt>
      <trkpt lat="48.18044" lon="6.92166">
        <ele>648.9</ele>
        <time>2023-02-16T10:49:28.852Z</time>
      </trkpt>
      <trkpt lat="48.18053" lon="6.92192">
        <ele>647.8</ele>
        <time>2023-02-16T10:49:36.116Z</time>
      </trkpt>
      <trkpt lat="48.18078" lon="6.92237">
        <ele>648.4</ele>
        <time>2023-02-16T10:49:53.528Z</time>
      </trkpt>
      <trkpt lat="48.18094" lon="6.92254">
        <ele>648.7</ele>
        <time>2023-02-16T10:50:02.269Z</time>
      </trkpt>
      <trkpt lat="48.1812" lon="6.92269">
        <ele>649.2</ele>
        <time>2023-02-16T10:50:14.790Z</time>
      </trkpt>
      <trkpt lat="48.18184" lon="6.92301">
        <ele>648.3</ele>
        <time>2023-02-16T10:50:42.320Z</time>
      </trkpt>
      <trkpt lat="48.18196" lon="6.92303">
        <ele>648.4</ele>
        <time>2023-02-16T10:50:47.585Z</time>
      </trkpt>
      <trkpt lat="48.18241" lon="6.9229">
        <ele>650.2</ele>
        <time>2023-02-16T10:51:09.633Z</time>
        <extensions>
          <visugpx:TrkExtension xmlns:visugpx="https://www.visugpx.com/editgpx/">
            <visugpx:node>7</visugpx:node>
            </visugpx:TrkExtension>
        </extensions>
      </trkpt>
      <trkpt lat="48.18254" lon="6.92286">
        <ele>650.9</ele>
        <time>2023-02-16T10:51:16.305Z</time>
      </trkpt>
      <trkpt lat="48.18267" lon="6.92284">
        <ele>651.2</ele>
        <time>2023-02-16T10:51:22.272Z</time>
      </trkpt>
      <trkpt lat="48.18281" lon="6.92278">
        <ele>651.8</ele>
        <time>2023-02-16T10:51:29.321Z</time>
      </trkpt>
      <trkpt lat="48.18297" lon="6.92271">
        <ele>652.1</ele>
        <time>2023-02-16T10:51:36.813Z</time>
      </trkpt>
      <trkpt lat="48.18326" lon="6.92251">
        <ele>653.1</ele>
        <time>2023-02-16T10:51:51.783Z</time>
      </trkpt>
      <trkpt lat="48.18342" lon="6.9224">
        <ele>653.7</ele>
        <time>2023-02-16T10:52:00.110Z</time>
      </trkpt>
      <trkpt lat="48.18369" lon="6.92214">
        <ele>654.3</ele>
        <time>2023-02-16T10:52:14.566Z</time>
      </trkpt>
      <trkpt lat="48.18397" lon="6.92178">
        <ele>655.4</ele>
        <time>2023-02-16T10:52:31.779Z</time>
      </trkpt>
      <trkpt lat="48.18412" lon="6.92151">
        <ele>655.6</ele>
        <time>2023-02-16T10:52:42.005Z</time>
      </trkpt>
      <trkpt lat="48.18415" lon="6.92139">
        <ele>656.2</ele>
        <time>2023-02-16T10:52:46.557Z</time>
      </trkpt>
      <trkpt lat="48.18438" lon="6.92033">
        <ele>658.7</ele>
        <time>2023-02-16T10:53:21.671Z</time>
      </trkpt>
      <trkpt lat="48.18446" lon="6.91987">
        <ele>659.2</ele>
        <time>2023-02-16T10:53:35.820Z</time>
      </trkpt>
      <trkpt lat="48.18462" lon="6.91938">
        <ele>658.9</ele>
        <time>2023-02-16T10:53:50.897Z</time>
      </trkpt>
      <trkpt lat="48.18491" lon="6.91874">
        <ele>658.5</ele>
        <time>2023-02-16T10:54:12.311Z</time>
      </trkpt>
      <trkpt lat="48.18502" lon="6.91854">
        <ele>658.3</ele>
        <time>2023-02-16T10:54:19.403Z</time>
      </trkpt>
      <trkpt lat="48.18542" lon="6.91799">
        <ele>657.2</ele>
        <time>2023-02-16T10:54:41.090Z</time>
      </trkpt>
      <trkpt lat="48.18589" lon="6.91771">
        <ele>656</ele>
        <time>2023-02-16T10:55:01.092Z</time>
      </trkpt>
      <trkpt lat="48.18608" lon="6.91762">
        <ele>656.8</ele>
        <time>2023-02-16T10:55:10.706Z</time>
      </trkpt>
      <trkpt lat="48.1871" lon="6.91707">
        <ele>658</ele>
        <time>2023-02-16T10:55:58.385Z</time>
      </trkpt>
      <trkpt lat="48.1878" lon="6.91662">
        <ele>654.2</ele>
        <time>2023-02-16T10:56:26.709Z</time>
      </trkpt>
      <trkpt lat="48.18854" lon="6.91555">
        <ele>649.7</ele>
        <time>2023-02-16T10:57:05.026Z</time>
      </trkpt>
      <trkpt lat="48.18923" lon="6.9143">
        <ele>647.3</ele>
        <time>2023-02-16T10:57:48.017Z</time>
      </trkpt>
      <trkpt lat="48.18953" lon="6.91393">
        <ele>644.1</ele>
        <time>2023-02-16T10:58:02.461Z</time>
      </trkpt>
      <trkpt lat="48.18972" lon="6.91375">
        <ele>642.7</ele>
        <time>2023-02-16T10:58:10.819Z</time>
      </trkpt>
      <trkpt lat="48.18996" lon="6.9136">
        <ele>640.9</ele>
        <time>2023-02-16T10:58:20.489Z</time>
      </trkpt>
      <trkpt lat="48.19054" lon="6.91339">
        <ele>636.9</ele>
        <time>2023-02-16T10:58:42.679Z</time>
      </trkpt>
      <trkpt lat="48.19104" lon="6.91317">
        <ele>639</ele>
        <time>2023-02-16T10:59:07.832Z</time>
      </trkpt>
      <trkpt lat="48.19126" lon="6.91312">
        <ele>639.7</ele>
        <time>2023-02-16T10:59:18.271Z</time>
      </trkpt>
      <trkpt lat="48.19141" lon="6.91312">
        <ele>639.7</ele>
        <time>2023-02-16T10:59:24.647Z</time>
      </trkpt>
      <trkpt lat="48.19152" lon="6.91314">
        <ele>639.3</ele>
        <time>2023-02-16T10:59:28.872Z</time>
      </trkpt>
      <trkpt lat="48.19184" lon="6.91329">
        <ele>636.6</ele>
        <time>2023-02-16T10:59:41.340Z</time>
      </trkpt>
      <trkpt lat="48.19227" lon="6.91357">
        <ele>634.5</ele>
        <time>2023-02-16T10:59:58.774Z</time>
      </trkpt>
      <trkpt lat="48.19245" lon="6.91372">
        <ele>633.1</ele>
        <time>2023-02-16T11:00:06.432Z</time>
      </trkpt>
      <trkpt lat="48.19293" lon="6.91417">
        <ele>630.8</ele>
        <time>2023-02-16T11:00:27.728Z</time>
      </trkpt>
      <trkpt lat="48.19325" lon="6.91443">
        <ele>629.3</ele>
        <time>2023-02-16T11:00:41.397Z</time>
      </trkpt>
      <trkpt lat="48.19352" lon="6.91465">
        <ele>626.2</ele>
        <time>2023-02-16T11:00:52.824Z</time>
      </trkpt>
      <trkpt lat="48.1936" lon="6.91468">
        <ele>626</ele>
        <time>2023-02-16T11:00:56.080Z</time>
      </trkpt>
      <trkpt lat="48.1937" lon="6.91468">
        <ele>626.3</ele>
        <time>2023-02-16T11:01:00.750Z</time>
      </trkpt>
      <trkpt lat="48.19376" lon="6.91466">
        <ele>627</ele>
        <time>2023-02-16T11:01:04.558Z</time>
      </trkpt>
      <trkpt lat="48.19382" lon="6.91463">
        <ele>627.9</ele>
        <time>2023-02-16T11:01:08.899Z</time>
      </trkpt>
      <trkpt lat="48.19395" lon="6.91449">
        <ele>629.8</ele>
        <time>2023-02-16T11:01:18.986Z</time>
        <extensions>
          <visugpx:TrkExtension xmlns:visugpx="https://www.visugpx.com/editgpx/">
            <visugpx:node>8</visugpx:node>
            </visugpx:TrkExtension>
        </extensions>
      </trkpt>
      <trkpt lat="48.19445" lon="6.91373">
        <ele>630.9</ele>
        <time>2023-02-16T11:01:50.729Z</time>
      </trkpt>
      <trkpt lat="48.19458" lon="6.9136">
        <ele>630.4</ele>
        <time>2023-02-16T11:01:56.758Z</time>
      </trkpt>
      <trkpt lat="48.19476" lon="6.91348">
        <ele>629.1</ele>
        <time>2023-02-16T11:02:04.084Z</time>
      </trkpt>
      <trkpt lat="48.19489" lon="6.91348">
        <ele>626.6</ele>
        <time>2023-02-16T11:02:08.919Z</time>
      </trkpt>
      <trkpt lat="48.19508" lon="6.91354">
        <ele>621.3</ele>
        <time>2023-02-16T11:02:16.140Z</time>
      </trkpt>
      <trkpt lat="48.19642" lon="6.91375">
        <ele>605.9</ele>
        <time>2023-02-16T11:03:06.248Z</time>
      </trkpt>
      <trkpt lat="48.19684" lon="6.91366">
        <ele>606.2</ele>
        <time>2023-02-16T11:03:24.679Z</time>
      </trkpt>
      <trkpt lat="48.1971" lon="6.91369">
        <ele>602.5</ele>
        <time>2023-02-16T11:03:34.378Z</time>
      </trkpt>
      <trkpt lat="48.19729" lon="6.91379">
        <ele>599.7</ele>
        <time>2023-02-16T11:03:41.866Z</time>
      </trkpt>
      <trkpt lat="48.19788" lon="6.91464">
        <ele>595</ele>
        <time>2023-02-16T11:04:12.288Z</time>
      </trkpt>
      <trkpt lat="48.19856" lon="6.91592">
        <ele>593.4</ele>
        <time>2023-02-16T11:04:56.633Z</time>
      </trkpt>
      <trkpt lat="48.1989" lon="6.91641">
        <ele>595.1</ele>
        <time>2023-02-16T11:05:19.081Z</time>
      </trkpt>
      <trkpt lat="48.1989" lon="6.91641">
        <ele>595.1</ele>
        <time>2023-02-16T11:05:19.081Z</time>
      </trkpt>
      <trkpt lat="48.1994" lon="6.91658">
        <ele>601.7</ele>
        <time>2023-02-16T11:05:52.576Z</time>
      </trkpt>
      <trkpt lat="48.19962" lon="6.91542">
        <ele>601.2</ele>
        <time>2023-02-16T11:06:26.099Z</time>
      </trkpt>
      <trkpt lat="48.19971" lon="6.91442">
        <ele>605.3</ele>
        <time>2023-02-16T11:07:00.841Z</time>
      </trkpt>
      <trkpt lat="48.19991" lon="6.91372">
        <ele>608.2</ele>
        <time>2023-02-16T11:07:26.732Z</time>
      </trkpt>
      <trkpt lat="48.20032" lon="6.9135">
        <ele>610.4</ele>
        <time>2023-02-16T11:07:48.463Z</time>
      </trkpt>
      <trkpt lat="48.20076" lon="6.9135">
        <ele>611.4</ele>
        <time>2023-02-16T11:08:08.540Z</time>
      </trkpt>
      <trkpt lat="48.20108" lon="6.91341">
        <ele>609.3</ele>
        <time>2023-02-16T11:08:20.648Z</time>
      </trkpt>
      <trkpt lat="48.20117" lon="6.91312">
        <ele>607.9</ele>
        <time>2023-02-16T11:08:28.578Z</time>
      </trkpt>
      <trkpt lat="48.20124" lon="6.9127">
        <ele>606.9</ele>
        <time>2023-02-16T11:08:39.627Z</time>
      </trkpt>
      <trkpt lat="48.20152" lon="6.91218">
        <ele>605.9</ele>
        <time>2023-02-16T11:08:57.318Z</time>
      </trkpt>
      <trkpt lat="48.20201" lon="6.91168">
        <ele>611.5</ele>
        <time>2023-02-16T11:09:31.617Z</time>
        <extensions>
          <visugpx:TrkExtension xmlns:visugpx="https://www.visugpx.com/editgpx/">
            <visugpx:node>9</visugpx:node>
            </visugpx:TrkExtension>
        </extensions>
      </trkpt>
      <trkpt lat="48.20235" lon="6.91094">
        <ele>614.2</ele>
        <time>2023-02-16T11:10:00.985Z</time>
      </trkpt>
      <trkpt lat="48.20286" lon="6.91027">
        <ele>611.2</ele>
        <time>2023-02-16T11:10:26.220Z</time>
      </trkpt>
      <trkpt lat="48.20341" lon="6.90982">
        <ele>607.3</ele>
        <time>2023-02-16T11:10:49.519Z</time>
      </trkpt>
      <trkpt lat="48.20382" lon="6.90944">
        <ele>600.7</ele>
        <time>2023-02-16T11:11:07.442Z</time>
      </trkpt>
      <trkpt lat="48.2045" lon="6.90789">
        <ele>595.4</ele>
        <time>2023-02-16T11:11:53.671Z</time>
      </trkpt>
      <trkpt lat="48.20475" lon="6.90791">
        <ele>593.3</ele>
        <time>2023-02-16T11:12:02.982Z</time>
      </trkpt>
      <trkpt lat="48.20503" lon="6.90836">
        <ele>593</ele>
        <time>2023-02-16T11:12:20.035Z</time>
      </trkpt>
      <trkpt lat="48.20534" lon="6.90851">
        <ele>593.2</ele>
        <time>2023-02-16T11:12:34.145Z</time>
      </trkpt>
      <trkpt lat="48.20545" lon="6.90845">
        <ele>593.3</ele>
        <time>2023-02-16T11:12:39.253Z</time>
      </trkpt>
      <trkpt lat="48.20554" lon="6.90831">
        <ele>594.1</ele>
        <time>2023-02-16T11:12:45.966Z</time>
      </trkpt>
      <trkpt lat="48.20591" lon="6.90744">
        <ele>592.9</ele>
        <time>2023-02-16T11:13:13.689Z</time>
      </trkpt>
      <trkpt lat="48.20606" lon="6.90703">
        <ele>591.7</ele>
        <time>2023-02-16T11:13:25.490Z</time>
      </trkpt>
      <trkpt lat="48.20618" lon="6.90679">
        <ele>591.1</ele>
        <time>2023-02-16T11:13:33.252Z</time>
      </trkpt>
      <trkpt lat="48.20642" lon="6.90645">
        <ele>590.1</ele>
        <time>2023-02-16T11:13:46.054Z</time>
      </trkpt>
      <trkpt lat="48.20648" lon="6.90639">
        <ele>589.6</ele>
        <time>2023-02-16T11:13:48.736Z</time>
      </trkpt>
      <trkpt lat="48.20668" lon="6.90626">
        <ele>587.8</ele>
        <time>2023-02-16T11:13:56.842Z</time>
      </trkpt>
      <trkpt lat="48.20682" lon="6.9062">
        <ele>586.2</ele>
        <time>2023-02-16T11:14:02.257Z</time>
      </trkpt>
      <trkpt lat="48.20688" lon="6.90618">
        <ele>585.4</ele>
        <time>2023-02-16T11:14:04.543Z</time>
      </trkpt>
      <trkpt lat="48.20713" lon="6.90606">
        <ele>584.6</ele>
        <time>2023-02-16T11:14:14.718Z</time>
      </trkpt>
      <trkpt lat="48.20753" lon="6.90579">
        <ele>584</ele>
        <time>2023-02-16T11:14:32.599Z</time>
      </trkpt>
      <trkpt lat="48.20768" lon="6.90571">
        <ele>583.2</ele>
        <time>2023-02-16T11:14:38.519Z</time>
      </trkpt>
      <trkpt lat="48.2078" lon="6.90562">
        <ele>582.5</ele>
        <time>2023-02-16T11:14:43.509Z</time>
      </trkpt>
      <trkpt lat="48.208" lon="6.90541">
        <ele>580.6</ele>
        <time>2023-02-16T11:14:52.587Z</time>
      </trkpt>
      <trkpt lat="48.20807" lon="6.90512">
        <ele>579.8</ele>
        <time>2023-02-16T11:15:00.360Z</time>
      </trkpt>
      <trkpt lat="48.20837" lon="6.90343">
        <ele>576.6</ele>
        <time>2023-02-16T11:15:45.949Z</time>
      </trkpt>
      <trkpt lat="48.2087" lon="6.90173">
        <ele>569.4</ele>
        <time>2023-02-16T11:16:29.835Z</time>
      </trkpt>
      <trkpt lat="48.20871" lon="6.90136">
        <ele>566.4</ele>
        <time>2023-02-16T11:16:39.013Z</time>
      </trkpt>
      <trkpt lat="48.20916" lon="6.9018">
        <ele>565</ele>
        <time>2023-02-16T11:17:00.109Z</time>
      </trkpt>
      <trkpt lat="48.2096" lon="6.90186">
        <ele>561.6</ele>
        <time>2023-02-16T11:17:16.541Z</time>
      </trkpt>
      <trkpt lat="48.20992" lon="6.90185">
        <ele>559.2</ele>
        <time>2023-02-16T11:17:28.445Z</time>
      </trkpt>
      <trkpt lat="48.21019" lon="6.90177">
        <ele>557</ele>
        <time>2023-02-16T11:17:38.680Z</time>
      </trkpt>
      <trkpt lat="48.21032" lon="6.9017">
        <ele>555.8</ele>
        <time>2023-02-16T11:17:43.817Z</time>
      </trkpt>
      <trkpt lat="48.21057" lon="6.90149">
        <ele>553.2</ele>
        <time>2023-02-16T11:17:54.472Z</time>
      </trkpt>
      <trkpt lat="48.21072" lon="6.90141">
        <ele>551.9</ele>
        <time>2023-02-16T11:18:00.393Z</time>
      </trkpt>
      <trkpt lat="48.21111" lon="6.90128">
        <ele>547.6</ele>
        <time>2023-02-16T11:18:15.251Z</time>
      </trkpt>
      <trkpt lat="48.21128" lon="6.90126">
        <ele>546.3</ele>
        <time>2023-02-16T11:18:21.593Z</time>
      </trkpt>
      <trkpt lat="48.21142" lon="6.90122">
        <ele>545.1</ele>
        <time>2023-02-16T11:18:26.893Z</time>
      </trkpt>
      <trkpt lat="48.21161" lon="6.90115">
        <ele>543.4</ele>
        <time>2023-02-16T11:18:34.169Z</time>
      </trkpt>
      <trkpt lat="48.21173" lon="6.90108">
        <ele>542.4</ele>
        <time>2023-02-16T11:18:38.958Z</time>
      </trkpt>
      <trkpt lat="48.21186" lon="6.90103">
        <ele>541.3</ele>
        <time>2023-02-16T11:18:43.949Z</time>
      </trkpt>
      <trkpt lat="48.21209" lon="6.90098">
        <ele>539.3</ele>
        <time>2023-02-16T11:18:52.592Z</time>
      </trkpt>
      <trkpt lat="48.21241" lon="6.90096">
        <ele>536.7</ele>
        <time>2023-02-16T11:19:04.504Z</time>
      </trkpt>
      <trkpt lat="48.21266" lon="6.90105">
        <ele>534.8</ele>
        <time>2023-02-16T11:19:14.065Z</time>
      </trkpt>
      <trkpt lat="48.21293" lon="6.90129">
        <ele>532.9</ele>
        <time>2023-02-16T11:19:25.736Z</time>
      </trkpt>
      <trkpt lat="48.21305" lon="6.90144">
        <ele>532.2</ele>
        <time>2023-02-16T11:19:31.545Z</time>
      </trkpt>
      <trkpt lat="48.21323" lon="6.90162">
        <ele>531.6</ele>
        <time>2023-02-16T11:19:39.998Z</time>
      </trkpt>
      <trkpt lat="48.21336" lon="6.90171">
        <ele>530.8</ele>
        <time>2023-02-16T11:19:45.323Z</time>
        <extensions>
          <visugpx:TrkExtension xmlns:visugpx="https://www.visugpx.com/editgpx/">
            <visugpx:node>10</visugpx:node>
            </visugpx:TrkExtension>
        </extensions>
      </trkpt>
      <trkpt lat="48.21359" lon="6.90184">
        <ele>529.2</ele>
        <time>2023-02-16T11:19:54.463Z</time>
      </trkpt>
      <trkpt lat="48.21377" lon="6.902">
        <ele>527.9</ele>
        <time>2023-02-16T11:20:02.244Z</time>
      </trkpt>
      <trkpt lat="48.21396" lon="6.90224">
        <ele>526.5</ele>
        <time>2023-02-16T11:20:11.480Z</time>
      </trkpt>
      <trkpt lat="48.21412" lon="6.90259">
        <ele>525.3</ele>
        <time>2023-02-16T11:20:22.066Z</time>
      </trkpt>
      <trkpt lat="48.21426" lon="6.90304">
        <ele>523.4</ele>
        <time>2023-02-16T11:20:34.373Z</time>
      </trkpt>
      <trkpt lat="48.21434" lon="6.90319">
        <ele>522.3</ele>
        <time>2023-02-16T11:20:39.135Z</time>
      </trkpt>
      <trkpt lat="48.2145" lon="6.90344">
        <ele>520.2</ele>
        <time>2023-02-16T11:20:47.725Z</time>
      </trkpt>
      <trkpt lat="48.21463" lon="6.90378">
        <ele>518.1</ele>
        <time>2023-02-16T11:20:57.440Z</time>
      </trkpt>
      <trkpt lat="48.21471" lon="6.90392">
        <ele>517</ele>
        <time>2023-02-16T11:21:02.010Z</time>
      </trkpt>
      <trkpt lat="48.21491" lon="6.90411">
        <ele>515</ele>
        <time>2023-02-16T11:21:10.813Z</time>
      </trkpt>
      <trkpt lat="48.21507" lon="6.90423">
        <ele>513.5</ele>
        <time>2023-02-16T11:21:17.466Z</time>
      </trkpt>
      <trkpt lat="48.21549" lon="6.90449">
        <ele>510.8</ele>
        <time>2023-02-16T11:21:34.363Z</time>
      </trkpt>
      <trkpt lat="48.21573" lon="6.90467">
        <ele>509.5</ele>
        <time>2023-02-16T11:21:44.341Z</time>
      </trkpt>
      <trkpt lat="48.2161" lon="6.90481">
        <ele>508.1</ele>
        <time>2023-02-16T11:21:58.865Z</time>
      </trkpt>
      <trkpt lat="48.21665" lon="6.90498">
        <ele>507</ele>
        <time>2023-02-16T11:22:21.352Z</time>
      </trkpt>
      <trkpt lat="48.21686" lon="6.90508">
        <ele>507.3</ele>
        <time>2023-02-16T11:22:31.121Z</time>
      </trkpt>
      <trkpt lat="48.2171" lon="6.90513">
        <ele>506.9</ele>
        <time>2023-02-16T11:22:40.915Z</time>
      </trkpt>
      <trkpt lat="48.21789" lon="6.90539">
        <ele>504.8</ele>
        <time>2023-02-16T11:23:12.691Z</time>
      </trkpt>
      <trkpt lat="48.21808" lon="6.90547">
        <ele>503.8</ele>
        <time>2023-02-16T11:23:20.030Z</time>
      </trkpt>
      <trkpt lat="48.21838" lon="6.90563">
        <ele>501.6</ele>
        <time>2023-02-16T11:23:31.871Z</time>
      </trkpt>
      <trkpt lat="48.21851" lon="6.90573">
        <ele>500.7</ele>
        <time>2023-02-16T11:23:37.304Z</time>
      </trkpt>
      <trkpt lat="48.21877" lon="6.90603">
        <ele>499.3</ele>
        <time>2023-02-16T11:23:49.568Z</time>
      </trkpt>
      <trkpt lat="48.21901" lon="6.90625">
        <ele>498.5</ele>
        <time>2023-02-16T11:24:00.536Z</time>
      </trkpt>
      <trkpt lat="48.21939" lon="6.9068">
        <ele>494</ele>
        <time>2023-02-16T11:24:20.170Z</time>
      </trkpt>
      <trkpt lat="48.21968" lon="6.90727">
        <ele>492.4</ele>
        <time>2023-02-16T11:24:36.376Z</time>
      </trkpt>
      <trkpt lat="48.21984" lon="6.90776">
        <ele>489.6</ele>
        <time>2023-02-16T11:24:49.898Z</time>
      </trkpt>
      <trkpt lat="48.21991" lon="6.9082">
        <ele>487.6</ele>
        <time>2023-02-16T11:25:01.108Z</time>
      </trkpt>
      <trkpt lat="48.21994" lon="6.90913">
        <ele>482.4</ele>
        <time>2023-02-16T11:25:24.180Z</time>
      </trkpt>
      <trkpt lat="48.21997" lon="6.90947">
        <ele>481.1</ele>
        <time>2023-02-16T11:25:32.678Z</time>
      </trkpt>
      <trkpt lat="48.22002" lon="6.90974">
        <ele>481</ele>
        <time>2023-02-16T11:25:40.485Z</time>
      </trkpt>
      <trkpt lat="48.22013" lon="6.91067">
        <ele>483.5</ele>
        <time>2023-02-16T11:26:10.806Z</time>
      </trkpt>
      <trkpt lat="48.22022" lon="6.91101">
        <ele>483.9</ele>
        <time>2023-02-16T11:26:21.709Z</time>
      </trkpt>
      <trkpt lat="48.22032" lon="6.91132">
        <ele>483.8</ele>
        <time>2023-02-16T11:26:31.334Z</time>
      </trkpt>
      <trkpt lat="48.22041" lon="6.91163">
        <ele>481.7</ele>
        <time>2023-02-16T11:26:39.713Z</time>
      </trkpt>
      <trkpt lat="48.22056" lon="6.91206">
        <ele>477.9</ele>
        <time>2023-02-16T11:26:51.740Z</time>
      </trkpt>
      <trkpt lat="48.22107" lon="6.91317">
        <ele>470.2</ele>
        <time>2023-02-16T11:27:25.151Z</time>
      </trkpt>
      <trkpt lat="48.22122" lon="6.91358">
        <ele>468.1</ele>
        <time>2023-02-16T11:27:36.741Z</time>
      </trkpt>
      <trkpt lat="48.22127" lon="6.91368">
        <ele>467</ele>
        <time>2023-02-16T11:27:39.839Z</time>
      </trkpt>
      <trkpt lat="48.22135" lon="6.91375">
        <ele>465.6</ele>
        <time>2023-02-16T11:27:43.283Z</time>
      </trkpt>
      <trkpt lat="48.22168" lon="6.9138">
        <ele>463.1</ele>
        <time>2023-02-16T11:27:55.619Z</time>
      </trkpt>
      <trkpt lat="48.22196" lon="6.91375">
        <ele>467.1</ele>
        <time>2023-02-16T11:28:14.943Z</time>
      </trkpt>
      <trkpt lat="48.22214" lon="6.91377">
        <ele>469.4</ele>
        <time>2023-02-16T11:28:26.680Z</time>
      </trkpt>
      <trkpt lat="48.22229" lon="6.91383">
        <ele>471.1</ele>
        <time>2023-02-16T11:28:36.149Z</time>
      </trkpt>
      <trkpt lat="48.22248" lon="6.9143">
        <ele>472.7</ele>
        <time>2023-02-16T11:28:54.024Z</time>
      </trkpt>
      <trkpt lat="48.2226" lon="6.91486">
        <ele>474.8</ele>
        <time>2023-02-16T11:29:13.781Z</time>
      </trkpt>
      <trkpt lat="48.22273" lon="6.91582">
        <ele>478.1</ele>
        <time>2023-02-16T11:29:46.357Z</time>
      </trkpt>
      <trkpt lat="48.22288" lon="6.91642">
        <ele>480.4</ele>
        <time>2023-02-16T11:30:07.900Z</time>
      </trkpt>
      <trkpt lat="48.22297" lon="6.91699">
        <ele>482.5</ele>
        <time>2023-02-16T11:30:27.588Z</time>
      </trkpt>
      <trkpt lat="48.22305" lon="6.91725">
        <ele>483.9</ele>
        <time>2023-02-16T11:30:37.862Z</time>
      </trkpt>
      <trkpt lat="48.22321" lon="6.91794">
        <ele>486.8</ele>
        <time>2023-02-16T11:31:02.890Z</time>
      </trkpt>
      <trkpt lat="48.2233" lon="6.91827">
        <ele>488.3</ele>
        <time>2023-02-16T11:31:15.251Z</time>
      </trkpt>
      <trkpt lat="48.22338" lon="6.91843">
        <ele>489.3</ele>
        <time>2023-02-16T11:31:22.467Z</time>
      </trkpt>
      <trkpt lat="48.22366" lon="6.91918">
        <ele>493.4</ele>
        <time>2023-02-16T11:31:53.124Z</time>
      </trkpt>
      <trkpt lat="48.22373" lon="6.91941">
        <ele>494.2</ele>
        <time>2023-02-16T11:32:01.448Z</time>
      </trkpt>
      <trkpt lat="48.22412" lon="6.92052">
        <ele>498.7</ele>
        <time>2023-02-16T11:32:43.626Z</time>
      </trkpt>
      <trkpt lat="48.22437" lon="6.92139">
        <ele>499.3</ele>
        <time>2023-02-16T11:33:11.258Z</time>
      </trkpt>
      <trkpt lat="48.22469" lon="6.92243">
        <ele>502.5</ele>
        <time>2023-02-16T11:33:48.293Z</time>
      </trkpt>
      <trkpt lat="48.22473" lon="6.92263">
        <ele>503.4</ele>
        <time>2023-02-16T11:33:55.568Z</time>
      </trkpt>
      <trkpt lat="48.22475" lon="6.92284">
        <ele>504.3</ele>
        <time>2023-02-16T11:34:02.935Z</time>
      </trkpt>
      <trkpt lat="48.2248" lon="6.92307">
        <ele>505.8</ele>
        <time>2023-02-16T11:34:12.218Z</time>
      </trkpt>
      <trkpt lat="48.22483" lon="6.92332">
        <ele>507.3</ele>
        <time>2023-02-16T11:34:21.817Z</time>
        <extensions>
          <visugpx:TrkExtension xmlns:visugpx="https://www.visugpx.com/editgpx/">
            <visugpx:node>11</visugpx:node>
            </visugpx:TrkExtension>
        </extensions>
      </trkpt>
      <trkpt lat="48.22507" lon="6.92334">
        <ele>508.3</ele>
        <time>2023-02-16T11:34:33.469Z</time>
      </trkpt>
      <trkpt lat="48.22534" lon="6.92328">
        <ele>508.8</ele>
        <time>2023-02-16T11:34:45.751Z</time>
      </trkpt>
      <trkpt lat="48.22552" lon="6.92313">
        <ele>508.6</ele>
        <time>2023-02-16T11:34:54.245Z</time>
      </trkpt>
      <trkpt lat="48.22591" lon="6.92286">
        <ele>509.6</ele>
        <time>2023-02-16T11:35:13.877Z</time>
      </trkpt>
      <trkpt lat="48.22601" lon="6.92276">
        <ele>509.9</ele>
        <time>2023-02-16T11:35:19.399Z</time>
      </trkpt>
      <trkpt lat="48.22606" lon="6.92269">
        <ele>509.5</ele>
        <time>2023-02-16T11:35:21.942Z</time>
      </trkpt>
      <trkpt lat="48.22639" lon="6.92182">
        <ele>503.1</ele>
        <time>2023-02-16T11:35:46.747Z</time>
      </trkpt>
      <trkpt lat="48.22654" lon="6.92161">
        <ele>503.4</ele>
        <time>2023-02-16T11:35:55.870Z</time>
      </trkpt>
      <trkpt lat="48.22668" lon="6.92139">
        <ele>503.2</ele>
        <time>2023-02-16T11:36:04.229Z</time>
      </trkpt>
      <trkpt lat="48.22709" lon="6.92039">
        <ele>496.3</ele>
        <time>2023-02-16T11:36:33.321Z</time>
      </trkpt>
      <trkpt lat="48.22736" lon="6.91998">
        <ele>496.7</ele>
        <time>2023-02-16T11:36:50.181Z</time>
      </trkpt>
      <trkpt lat="48.22756" lon="6.91978">
        <ele>498.4</ele>
        <time>2023-02-16T11:37:03.007Z</time>
      </trkpt>
      <trkpt lat="48.22805" lon="6.91913">
        <ele>499.2</ele>
        <time>2023-02-16T11:37:31.876Z</time>
      </trkpt>
      <trkpt lat="48.2284" lon="6.91872">
        <ele>496.2</ele>
        <time>2023-02-16T11:37:48.387Z</time>
      </trkpt>
      <trkpt lat="48.22851" lon="6.91863">
        <ele>495.9</ele>
        <time>2023-02-16T11:37:53.339Z</time>
      </trkpt>
      <trkpt lat="48.22858" lon="6.91861">
        <ele>496.4</ele>
        <time>2023-02-16T11:37:57.135Z</time>
      </trkpt>
      <trkpt lat="48.22907" lon="6.91857">
        <ele>501.7</ele>
        <time>2023-02-16T11:38:26.910Z</time>
      </trkpt>
      <trkpt lat="48.22917" lon="6.91853">
        <ele>502.6</ele>
        <time>2023-02-16T11:38:32.746Z</time>
      </trkpt>
      <trkpt lat="48.22921" lon="6.9185">
        <ele>502.7</ele>
        <time>2023-02-16T11:38:34.784Z</time>
      </trkpt>
      <trkpt lat="48.22928" lon="6.91842">
        <ele>502.4</ele>
        <time>2023-02-16T11:38:38.159Z</time>
      </trkpt>
      <trkpt lat="48.22933" lon="6.91831">
        <ele>501.6</ele>
        <time>2023-02-16T11:38:41.458Z</time>
      </trkpt>
      <trkpt lat="48.22942" lon="6.91805">
        <ele>500.5</ele>
        <time>2023-02-16T11:38:48.717Z</time>
      </trkpt>
      <trkpt lat="48.22947" lon="6.91783">
        <ele>497.9</ele>
        <time>2023-02-16T11:38:54.476Z</time>
      </trkpt>
      <trkpt lat="48.22954" lon="6.91764">
        <ele>496.1</ele>
        <time>2023-02-16T11:38:59.855Z</time>
      </trkpt>
      <trkpt lat="48.22962" lon="6.91754">
        <ele>495.4</ele>
        <time>2023-02-16T11:39:03.727Z</time>
      </trkpt>
      <trkpt lat="48.22969" lon="6.91746">
        <ele>495.1</ele>
        <time>2023-02-16T11:39:07.101Z</time>
      </trkpt>
      <trkpt lat="48.22976" lon="6.91743">
        <ele>494.9</ele>
        <time>2023-02-16T11:39:09.948Z</time>
      </trkpt>
      <trkpt lat="48.22984" lon="6.91742">
        <ele>494.7</ele>
        <time>2023-02-16T11:39:13.112Z</time>
      </trkpt>
      <trkpt lat="48.22996" lon="6.91745">
        <ele>495.1</ele>
        <time>2023-02-16T11:39:18.846Z</time>
      </trkpt>
      <trkpt lat="48.2302" lon="6.91757">
        <ele>497.2</ele>
        <time>2023-02-16T11:39:32.920Z</time>
      </trkpt>
      <trkpt lat="48.2303" lon="6.91765">
        <ele>498.3</ele>
        <time>2023-02-16T11:39:39.538Z</time>
        <extensions>
          <visugpx:TrkExtension xmlns:visugpx="https://www.visugpx.com/editgpx/">
            <visugpx:node>12</visugpx:node>
            </visugpx:TrkExtension>
        </extensions>
      </trkpt>
      <trkpt lat="48.23033" lon="6.91767">
        <ele>498.1</ele>
        <time>2023-02-16T11:39:40.759Z</time>
      </trkpt>
      <trkpt lat="48.23046" lon="6.91779">
        <ele>498</ele>
        <time>2023-02-16T11:39:47.116Z</time>
      </trkpt>
      <trkpt lat="48.23061" lon="6.91795">
        <ele>498.9</ele>
        <time>2023-02-16T11:39:56.251Z</time>
      </trkpt>
      <trkpt lat="48.23082" lon="6.91826">
        <ele>501.8</ele>
        <time>2023-02-16T11:40:13.534Z</time>
      </trkpt>
      <trkpt lat="48.23097" lon="6.91849">
        <ele>501.9</ele>
        <time>2023-02-16T11:40:22.780Z</time>
      </trkpt>
      <trkpt lat="48.23109" lon="6.91864">
        <ele>501.6</ele>
        <time>2023-02-16T11:40:29.040Z</time>
      </trkpt>
      <trkpt lat="48.23114" lon="6.91868">
        <ele>501.2</ele>
        <time>2023-02-16T11:40:31.148Z</time>
      </trkpt>
      <trkpt lat="48.2312" lon="6.91872">
        <ele>500.7</ele>
        <time>2023-02-16T11:40:33.589Z</time>
      </trkpt>
      <trkpt lat="48.23135" lon="6.9188">
        <ele>499.3</ele>
        <time>2023-02-16T11:40:39.509Z</time>
      </trkpt>
      <trkpt lat="48.23144" lon="6.91886">
        <ele>498.8</ele>
        <time>2023-02-16T11:40:43.172Z</time>
      </trkpt>
      <trkpt lat="48.23149" lon="6.91892">
        <ele>499</ele>
        <time>2023-02-16T11:40:46.173Z</time>
      </trkpt>
      <trkpt lat="48.23167" lon="6.91916">
        <ele>499.9</ele>
        <time>2023-02-16T11:40:57.685Z</time>
      </trkpt>
      <trkpt lat="48.23175" lon="6.91928">
        <ele>499.6</ele>
        <time>2023-02-16T11:41:02.121Z</time>
      </trkpt>
      <trkpt lat="48.23185" lon="6.91941">
        <ele>499.1</ele>
        <time>2023-02-16T11:41:07.139Z</time>
      </trkpt>
      <trkpt lat="48.23197" lon="6.91953">
        <ele>498</ele>
        <time>2023-02-16T11:41:12.502Z</time>
      </trkpt>
      <trkpt lat="48.23211" lon="6.91963">
        <ele>496.5</ele>
        <time>2023-02-16T11:41:18.268Z</time>
      </trkpt>
      <trkpt lat="48.23221" lon="6.91971">
        <ele>495.2</ele>
        <time>2023-02-16T11:41:22.482Z</time>
      </trkpt>
      <trkpt lat="48.23226" lon="6.91979">
        <ele>495.2</ele>
        <time>2023-02-16T11:41:25.588Z</time>
      </trkpt>
      <trkpt lat="48.23235" lon="6.91995">
        <ele>495.4</ele>
        <time>2023-02-16T11:41:31.787Z</time>
      </trkpt>
      <trkpt lat="48.23244" lon="6.91993">
        <ele>495.2</ele>
        <time>2023-02-16T11:41:35.404Z</time>
      </trkpt>
      <trkpt lat="48.23249" lon="6.91992">
        <ele>495</ele>
        <time>2023-02-16T11:41:37.308Z</time>
      </trkpt>
      <trkpt lat="48.23266" lon="6.91991">
        <ele>494.6</ele>
        <time>2023-02-16T11:41:44.041Z</time>
      </trkpt>
      <trkpt lat="48.23287" lon="6.91992">
        <ele>494.6</ele>
        <time>2023-02-16T11:41:52.972Z</time>
      </trkpt>
      <trkpt lat="48.23309" lon="6.91995">
        <ele>495.5</ele>
        <time>2023-02-16T11:42:03.650Z</time>
      </trkpt>
      <trkpt lat="48.23326" lon="6.92">
        <ele>496.5</ele>
        <time>2023-02-16T11:42:12.503Z</time>
      </trkpt>
      <trkpt lat="48.23344" lon="6.92005">
        <ele>497.1</ele>
        <time>2023-02-16T11:42:21.128Z</time>
      </trkpt>
      <trkpt lat="48.23358" lon="6.92014">
        <ele>497.3</ele>
        <time>2023-02-16T11:42:27.870Z</time>
      </trkpt>
      <trkpt lat="48.23367" lon="6.92017">
        <ele>497.7</ele>
        <time>2023-02-16T11:42:32.365Z</time>
      </trkpt>
      <trkpt lat="48.23377" lon="6.92017">
        <ele>498.3</ele>
        <time>2023-02-16T11:42:37.514Z</time>
      </trkpt>
      <trkpt lat="48.23384" lon="6.92017">
        <ele>498.7</ele>
        <time>2023-02-16T11:42:41.084Z</time>
      </trkpt>
      <trkpt lat="48.23392" lon="6.92015">
        <ele>499.1</ele>
        <time>2023-02-16T11:42:45.116Z</time>
      </trkpt>
      <trkpt lat="48.23412" lon="6.92003">
        <ele>499.8</ele>
        <time>2023-02-16T11:42:55.255Z</time>
      </trkpt>
      <trkpt lat="48.23417" lon="6.91998">
        <ele>500</ele>
        <time>2023-02-16T11:42:58.090Z</time>
      </trkpt>
      <trkpt lat="48.23427" lon="6.91991">
        <ele>499.5</ele>
        <time>2023-02-16T11:43:02.193Z</time>
      </trkpt>
      <trkpt lat="48.23441" lon="6.91977">
        <ele>498.4</ele>
        <time>2023-02-16T11:43:08.449Z</time>
      </trkpt>
      <trkpt lat="48.23449" lon="6.91965">
        <ele>497.3</ele>
        <time>2023-02-16T11:43:12.655Z</time>
      </trkpt>
      <trkpt lat="48.23456" lon="6.9195">
        <ele>496.3</ele>
        <time>2023-02-16T11:43:17.192Z</time>
      </trkpt>
      <trkpt lat="48.23465" lon="6.91929">
        <ele>495</ele>
        <time>2023-02-16T11:43:23.378Z</time>
      </trkpt>
      <trkpt lat="48.23477" lon="6.91913">
        <ele>493.3</ele>
        <time>2023-02-16T11:43:29.347Z</time>
      </trkpt>
      <trkpt lat="48.2349" lon="6.919">
        <ele>491.4</ele>
        <time>2023-02-16T11:43:35.157Z</time>
      </trkpt>
      <trkpt lat="48.23491" lon="6.919">
        <ele>491.3</ele>
        <time>2023-02-16T11:43:35.528Z</time>
      </trkpt>
      <trkpt lat="48.23505" lon="6.91894">
        <ele>489.5</ele>
        <time>2023-02-16T11:43:40.943Z</time>
      </trkpt>
      <trkpt lat="48.23516" lon="6.91892">
        <ele>488.3</ele>
        <time>2023-02-16T11:43:45.064Z</time>
      </trkpt>
      <trkpt lat="48.23526" lon="6.91892">
        <ele>487.2</ele>
        <time>2023-02-16T11:43:48.783Z</time>
      </trkpt>
      <trkpt lat="48.23543" lon="6.91896">
        <ele>485.4</ele>
        <time>2023-02-16T11:43:55.183Z</time>
      </trkpt>
      <trkpt lat="48.23551" lon="6.91898">
        <ele>484.5</ele>
        <time>2023-02-16T11:43:58.199Z</time>
        <extensions>
          <visugpx:TrkExtension xmlns:visugpx="https://www.visugpx.com/editgpx/">
            <visugpx:node>13</visugpx:node>
            </visugpx:TrkExtension>
        </extensions>
      </trkpt>
      <trkpt lat="48.23543" lon="6.91896">
        <ele>485.4</ele>
        <time>2023-02-16T11:44:03.172Z</time>
      </trkpt>
      <trkpt lat="48.23565" lon="6.91832">
        <ele>483.9</ele>
        <time>2023-02-16T11:44:21.725Z</time>
      </trkpt>
      <trkpt lat="48.23582" lon="6.91776">
        <ele>480.9</ele>
        <time>2023-02-16T11:44:36.970Z</time>
      </trkpt>
      <trkpt lat="48.23598" lon="6.9167">
        <ele>476.6</ele>
        <time>2023-02-16T11:45:03.894Z</time>
      </trkpt>
      <trkpt lat="48.23615" lon="6.91606">
        <ele>473.8</ele>
        <time>2023-02-16T11:45:20.962Z</time>
      </trkpt>
      <trkpt lat="48.23622" lon="6.91587">
        <ele>472.5</ele>
        <time>2023-02-16T11:45:26.340Z</time>
        <extensions>
          <visugpx:TrkExtension xmlns:visugpx="https://www.visugpx.com/editgpx/">
            <visugpx:node>14</visugpx:node>
            </visugpx:TrkExtension>
        </extensions>
      </trkpt>
      <trkpt lat="48.23653" lon="6.91496">
        <ele>468.4</ele>
        <time>2023-02-16T11:45:51.660Z</time>
      </trkpt>
      <trkpt lat="48.23694" lon="6.9138">
        <ele>463.4</ele>
        <time>2023-02-16T11:46:24.190Z</time>
      </trkpt>
      <trkpt lat="48.23726" lon="6.91343">
        <ele>462.4</ele>
        <time>2023-02-16T11:46:40.116Z</time>
      </trkpt>
      <trkpt lat="48.23746" lon="6.91316">
        <ele>463.1</ele>
        <time>2023-02-16T11:46:52.518Z</time>
      </trkpt>
      <trkpt lat="48.23763" lon="6.91292">
        <ele>463.2</ele>
        <time>2023-02-16T11:47:02.568Z</time>
      </trkpt>
      <trkpt lat="48.2378" lon="6.91271">
        <ele>462.8</ele>
        <time>2023-02-16T11:47:11.422Z</time>
      </trkpt>
      <trkpt lat="48.23789" lon="6.91261">
        <ele>462.6</ele>
        <time>2023-02-16T11:47:15.929Z</time>
      </trkpt>
      <trkpt lat="48.23796" lon="6.91254">
        <ele>462.7</ele>
        <time>2023-02-16T11:47:19.638Z</time>
      </trkpt>
      <trkpt lat="48.23801" lon="6.91252">
        <ele>462.8</ele>
        <time>2023-02-16T11:47:21.974Z</time>
      </trkpt>
      <trkpt lat="48.23804" lon="6.91251">
        <ele>462.9</ele>
        <time>2023-02-16T11:47:23.421Z</time>
      </trkpt>
      <trkpt lat="48.23808" lon="6.91252">
        <ele>463.1</ele>
        <time>2023-02-16T11:47:25.436Z</time>
      </trkpt>
      <trkpt lat="48.2382" lon="6.91253">
        <ele>463.5</ele>
        <time>2023-02-16T11:47:31.108Z</time>
      </trkpt>
      <trkpt lat="48.2383" lon="6.91254">
        <ele>463.9</ele>
        <time>2023-02-16T11:47:35.940Z</time>
      </trkpt>
      <trkpt lat="48.23837" lon="6.91255">
        <ele>464</ele>
        <time>2023-02-16T11:47:39.063Z</time>
      </trkpt>
      <trkpt lat="48.23843" lon="6.91256">
        <ele>463.9</ele>
        <time>2023-02-16T11:47:41.503Z</time>
      </trkpt>
      <trkpt lat="48.2385" lon="6.91256">
        <ele>463.9</ele>
        <time>2023-02-16T11:47:44.478Z</time>
      </trkpt>
      <trkpt lat="48.23856" lon="6.91256">
        <ele>463.8</ele>
        <time>2023-02-16T11:47:46.902Z</time>
      </trkpt>
      <trkpt lat="48.23862" lon="6.91256">
        <ele>463.7</ele>
        <time>2023-02-16T11:47:49.326Z</time>
      </trkpt>
      <trkpt lat="48.23868" lon="6.91256">
        <ele>463.5</ele>
        <time>2023-02-16T11:47:51.633Z</time>
      </trkpt>
      <trkpt lat="48.23877" lon="6.91257">
        <ele>463</ele>
        <time>2023-02-16T11:47:54.989Z</time>
      </trkpt>
      <trkpt lat="48.23884" lon="6.91257">
        <ele>462.7</ele>
        <time>2023-02-16T11:47:57.606Z</time>
      </trkpt>
      <trkpt lat="48.23889" lon="6.91256">
        <ele>462.6</ele>
        <time>2023-02-16T11:47:59.624Z</time>
      </trkpt>
      <trkpt lat="48.23897" lon="6.91253">
        <ele>462.5</ele>
        <time>2023-02-16T11:48:03.002Z</time>
      </trkpt>
      <trkpt lat="48.23906" lon="6.91253">
        <ele>462.1</ele>
        <time>2023-02-16T11:48:06.350Z</time>
      </trkpt>
      <trkpt lat="48.23914" lon="6.9125">
        <ele>462.1</ele>
        <time>2023-02-16T11:48:09.855Z</time>
      </trkpt>
      <trkpt lat="48.23927" lon="6.91247">
        <ele>461.6</ele>
        <time>2023-02-16T11:48:14.841Z</time>
      </trkpt>
      <trkpt lat="48.23942" lon="6.91243">
        <ele>460.9</ele>
        <time>2023-02-16T11:48:20.507Z</time>
      </trkpt>
      <trkpt lat="48.23974" lon="6.91252">
        <ele>457.7</ele>
        <time>2023-02-16T11:48:32.616Z</time>
      </trkpt>
      <trkpt lat="48.23979" lon="6.91252">
        <ele>457.1</ele>
        <time>2023-02-16T11:48:34.475Z</time>
      </trkpt>
      <trkpt lat="48.23995" lon="6.91252">
        <ele>455.4</ele>
        <time>2023-02-16T11:48:40.426Z</time>
      </trkpt>
      <trkpt lat="48.24026" lon="6.91236">
        <ele>450.4</ele>
        <time>2023-02-16T11:48:52.617Z</time>
      </trkpt>
      <trkpt lat="48.24053" lon="6.91226">
        <ele>444.7</ele>
        <time>2023-02-16T11:49:02.960Z</time>
      </trkpt>
      <trkpt lat="48.24082" lon="6.91203">
        <ele>443</ele>
        <time>2023-02-16T11:49:15.158Z</time>
      </trkpt>
      <trkpt lat="48.24133" lon="6.91174">
        <ele>438.2</ele>
        <time>2023-02-16T11:49:35.440Z</time>
      </trkpt>
      <trkpt lat="48.2417" lon="6.91156">
        <ele>434.7</ele>
        <time>2023-02-16T11:49:49.905Z</time>
      </trkpt>
      <trkpt lat="48.24195" lon="6.9116">
        <ele>433.7</ele>
        <time>2023-02-16T11:49:59.388Z</time>
      </trkpt>
      <trkpt lat="48.24253" lon="6.91182">
        <ele>429.1</ele>
        <time>2023-02-16T11:50:21.636Z</time>
      </trkpt>
      <trkpt lat="48.24265" lon="6.91185">
        <ele>427.5</ele>
        <time>2023-02-16T11:50:26.160Z</time>
      </trkpt>
      <trkpt lat="48.24275" lon="6.91183">
        <ele>426.3</ele>
        <time>2023-02-16T11:50:29.912Z</time>
      </trkpt>
      <trkpt lat="48.24296" lon="6.91172">
        <ele>424</ele>
        <time>2023-02-16T11:50:38.184Z</time>
      </trkpt>
      <trkpt lat="48.2431" lon="6.91163">
        <ele>422.4</ele>
        <time>2023-02-16T11:50:43.848Z</time>
      </trkpt>
      <trkpt lat="48.24322" lon="6.91161">
        <ele>420.6</ele>
        <time>2023-02-16T11:50:48.338Z</time>
      </trkpt>
      <trkpt lat="48.24335" lon="6.91157">
        <ele>418.8</ele>
        <time>2023-02-16T11:50:53.274Z</time>
      </trkpt>
      <trkpt lat="48.24349" lon="6.91151">
        <ele>417.3</ele>
        <time>2023-02-16T11:50:58.689Z</time>
      </trkpt>
      <trkpt lat="48.24373" lon="6.91141">
        <ele>414.7</ele>
        <time>2023-02-16T11:51:07.952Z</time>
      </trkpt>
      <trkpt lat="48.24392" lon="6.91127">
        <ele>412.2</ele>
        <time>2023-02-16T11:51:15.823Z</time>
      </trkpt>
      <trkpt lat="48.24409" lon="6.91107">
        <ele>409.8</ele>
        <time>2023-02-16T11:51:23.855Z</time>
      </trkpt>
      <trkpt lat="48.24428" lon="6.91086">
        <ele>407.8</ele>
        <time>2023-02-16T11:51:32.629Z</time>
      </trkpt>
      <trkpt lat="48.24438" lon="6.9108">
        <ele>406.7</ele>
        <time>2023-02-16T11:51:36.634Z</time>
      </trkpt>
      <trkpt lat="48.24443" lon="6.91076">
        <ele>406.1</ele>
        <time>2023-02-16T11:51:38.741Z</time>
        <extensions>
          <visugpx:TrkExtension xmlns:visugpx="https://www.visugpx.com/editgpx/">
            <visugpx:node>15</visugpx:node>
            </visugpx:TrkExtension>
        </extensions>
      </trkpt>
      <trkpt lat="48.2446" lon="6.91063">
        <ele>404.3</ele>
        <time>2023-02-16T11:51:45.836Z</time>
      </trkpt>
      <trkpt lat="48.24467" lon="6.9106">
        <ele>403.6</ele>
        <time>2023-02-16T11:51:48.544Z</time>
      </trkpt>
      <trkpt lat="48.24471" lon="6.91058">
        <ele>403.1</ele>
        <time>2023-02-16T11:51:50.112Z</time>
      </trkpt>
      <trkpt lat="48.24474" lon="6.91056">
        <ele>402.7</ele>
        <time>2023-02-16T11:51:51.332Z</time>
      </trkpt>
      <trkpt lat="48.24478" lon="6.91055">
        <ele>402</ele>
        <time>2023-02-16T11:51:52.841Z</time>
      </trkpt>
      <trkpt lat="48.24483" lon="6.91055">
        <ele>401.1</ele>
        <time>2023-02-16T11:51:54.700Z</time>
      </trkpt>
      <trkpt lat="48.24489" lon="6.91056">
        <ele>400</ele>
        <time>2023-02-16T11:51:56.945Z</time>
      </trkpt>
      <trkpt lat="48.24496" lon="6.91038">
        <ele>399.3</ele>
        <time>2023-02-16T11:52:02.108Z</time>
      </trkpt>
      <trkpt lat="48.24507" lon="6.91012">
        <ele>397.3</ele>
        <time>2023-02-16T11:52:09.737Z</time>
      </trkpt>
      <trkpt lat="48.24515" lon="6.9099">
        <ele>395.7</ele>
        <time>2023-02-16T11:52:15.945Z</time>
      </trkpt>
      <trkpt lat="48.24527" lon="6.90961">
        <ele>393.7</ele>
        <time>2023-02-16T11:52:24.401Z</time>
      </trkpt>
      <trkpt lat="48.24535" lon="6.90936">
        <ele>392.7</ele>
        <time>2023-02-16T11:52:31.271Z</time>
      </trkpt>
      <trkpt lat="48.24539" lon="6.9092">
        <ele>392.6</ele>
        <time>2023-02-16T11:52:35.980Z</time>
      </trkpt>
      <trkpt lat="48.2454" lon="6.90911">
        <ele>392.4</ele>
        <time>2023-02-16T11:52:38.319Z</time>
      </trkpt>
      <trkpt lat="48.24542" lon="6.90904">
        <ele>392</ele>
        <time>2023-02-16T11:52:40.205Z</time>
      </trkpt>
      <trkpt lat="48.24543" lon="6.90898">
        <ele>391.8</ele>
        <time>2023-02-16T11:52:41.737Z</time>
      </trkpt>
      <trkpt lat="48.24545" lon="6.90888">
        <ele>391.3</ele>
        <time>2023-02-16T11:52:44.323Z</time>
      </trkpt>
      <trkpt lat="48.24545" lon="6.9088">
        <ele>391.1</ele>
        <time>2023-02-16T11:52:46.346Z</time>
      </trkpt>
      <trkpt lat="48.24547" lon="6.90872">
        <ele>390.7</ele>
        <time>2023-02-16T11:52:48.462Z</time>
      </trkpt>
      <trkpt lat="48.24552" lon="6.90862">
        <ele>390.2</ele>
        <time>2023-02-16T11:52:51.559Z</time>
      </trkpt>
      <trkpt lat="48.24567" lon="6.90841">
        <ele>389.2</ele>
        <time>2023-02-16T11:52:59.186Z</time>
      </trkpt>
      <trkpt lat="48.24583" lon="6.90816">
        <ele>388.4</ele>
        <time>2023-02-16T11:53:08.028Z</time>
      </trkpt>
      <trkpt lat="48.2459" lon="6.90806">
        <ele>388</ele>
        <time>2023-02-16T11:53:11.655Z</time>
        <extensions>
          <visugpx:TrkExtension xmlns:visugpx="https://www.visugpx.com/editgpx/">
            <visugpx:node>16</visugpx:node>
            </visugpx:TrkExtension>
        </extensions>
      </trkpt>
      <trkpt lat="48.24591" lon="6.90805">
        <ele>388</ele>
        <time>2023-02-16T11:53:12.165Z</time>
      </trkpt>
      <trkpt lat="48.24592" lon="6.90802">
        <ele>388</ele>
        <time>2023-02-16T11:53:13.115Z</time>
      </trkpt>
      <trkpt lat="48.24595" lon="6.90799">
        <ele>388</ele>
        <time>2023-02-16T11:53:14.647Z</time>
      </trkpt>
      <trkpt lat="48.24597" lon="6.90797">
        <ele>388</ele>
        <time>2023-02-16T11:53:15.668Z</time>
      </trkpt>
      <trkpt lat="48.24603" lon="6.90793">
        <ele>388</ele>
        <time>2023-02-16T11:53:18.459Z</time>
      </trkpt>
      <trkpt lat="48.24622" lon="6.90781">
        <ele>388.8</ele>
        <time>2023-02-16T11:53:28.360Z</time>
      </trkpt>
      <trkpt lat="48.24638" lon="6.90768">
        <ele>389.2</ele>
        <time>2023-02-16T11:53:36.642Z</time>
      </trkpt>
      <trkpt lat="48.24648" lon="6.90761">
        <ele>389.2</ele>
        <time>2023-02-16T11:53:41.332Z</time>
      </trkpt>
      <trkpt lat="48.24656" lon="6.90755">
        <ele>389.1</ele>
        <time>2023-02-16T11:53:45.005Z</time>
      </trkpt>
      <trkpt lat="48.24668" lon="6.90747">
        <ele>388.8</ele>
        <time>2023-02-16T11:53:50.211Z</time>
      </trkpt>
      <trkpt lat="48.24681" lon="6.90741">
        <ele>388.4</ele>
        <time>2023-02-16T11:53:55.500Z</time>
      </trkpt>
      <trkpt lat="48.24694" lon="6.90736">
        <ele>388</ele>
        <time>2023-02-16T11:54:00.713Z</time>
      </trkpt>
      <trkpt lat="48.24708" lon="6.90733">
        <ele>387.3</ele>
        <time>2023-02-16T11:54:05.972Z</time>
      </trkpt>
      <trkpt lat="48.24724" lon="6.90729">
        <ele>386.4</ele>
        <time>2023-02-16T11:54:12.005Z</time>
      </trkpt>
      <trkpt lat="48.24739" lon="6.90725">
        <ele>385.6</ele>
        <time>2023-02-16T11:54:17.671Z</time>
      </trkpt>
      <trkpt lat="48.24751" lon="6.90719">
        <ele>385</ele>
        <time>2023-02-16T11:54:22.375Z</time>
      </trkpt>
      <trkpt lat="48.24766" lon="6.90712">
        <ele>384.2</ele>
        <time>2023-02-16T11:54:28.217Z</time>
      </trkpt>
      <trkpt lat="48.24784" lon="6.90703">
        <ele>383.1</ele>
        <time>2023-02-16T11:54:35.272Z</time>
      </trkpt>
      <trkpt lat="48.24787" lon="6.90711">
        <ele>383.3</ele>
        <time>2023-02-16T11:54:38.152Z</time>
      </trkpt>
      <trkpt lat="48.24788" lon="6.90714">
        <ele>383.3</ele>
        <time>2023-02-16T11:54:39.102Z</time>
      </trkpt>
      <trkpt lat="48.24789" lon="6.90718">
        <ele>383.4</ele>
        <time>2023-02-16T11:54:40.453Z</time>
      </trkpt>
      <trkpt lat="48.24789" lon="6.90719">
        <ele>383.5</ele>
        <time>2023-02-16T11:54:40.923Z</time>
        <extensions>
          <visugpx:TrkExtension xmlns:visugpx="https://www.visugpx.com/editgpx/">
            <visugpx:node>17</visugpx:node>
            </visugpx:TrkExtension>
        </extensions>
      </trkpt>
      <trkpt lat="48.2479" lon="6.90724">
        <ele>383.6</ele>
        <time>2023-02-16T11:54:42.540Z</time>
      </trkpt>
      <trkpt lat="48.24791" lon="6.90732">
        <ele>383.7</ele>
        <time>2023-02-16T11:54:44.980Z</time>
      </trkpt>
      <trkpt lat="48.24785" lon="6.90743">
        <ele>384.3</ele>
        <time>2023-02-16T11:54:49.911Z</time>
      </trkpt>
      <trkpt lat="48.24779" lon="6.90755">
        <ele>385.1</ele>
        <time>2023-02-16T11:54:55.415Z</time>
      </trkpt>
      <trkpt lat="48.24774" lon="6.90771">
        <ele>386</ele>
        <time>2023-02-16T11:55:01.819Z</time>
      </trkpt>
      <trkpt lat="48.24769" lon="6.90787">
        <ele>387.1</ele>
        <time>2023-02-16T11:55:08.607Z</time>
      </trkpt>
      <trkpt lat="48.24766" lon="6.90805">
        <ele>388.2</ele>
        <time>2023-02-16T11:55:15.624Z</time>
      </trkpt>
      <trkpt lat="48.2476" lon="6.90836">
        <ele>390</ele>
        <time>2023-02-16T11:55:27.615Z</time>
      </trkpt>
      <trkpt lat="48.2475" lon="6.90902">
        <ele>394.5</ele>
        <time>2023-02-16T11:55:54.192Z</time>
      </trkpt>
      <trkpt lat="48.24742" lon="6.90946">
        <ele>395.8</ele>
        <time>2023-02-16T11:56:08.972Z</time>
      </trkpt>
      <trkpt lat="48.24737" lon="6.90967">
        <ele>395.6</ele>
        <time>2023-02-16T11:56:15.030Z</time>
      </trkpt>
      <trkpt lat="48.24732" lon="6.90982">
        <ele>395.6</ele>
        <time>2023-02-16T11:56:19.778Z</time>
      </trkpt>
      <trkpt lat="48.24724" lon="6.91">
        <ele>395.8</ele>
        <time>2023-02-16T11:56:26.173Z</time>
      </trkpt>
      <trkpt lat="48.24709" lon="6.91025">
        <ele>396.1</ele>
        <time>2023-02-16T11:56:36.102Z</time>
      </trkpt>
      <trkpt lat="48.24689" lon="6.91058">
        <ele>397.6</ele>
        <time>2023-02-16T11:56:50.929Z</time>
      </trkpt>
      <trkpt lat="48.24675" lon="6.91088">
        <ele>399.8</ele>
        <time>2023-02-16T11:57:04.840Z</time>
      </trkpt>
      <trkpt lat="48.24669" lon="6.91105">
        <ele>400.7</ele>
        <time>2023-02-16T11:57:11.667Z</time>
      </trkpt>
      <trkpt lat="48.24666" lon="6.91115">
        <ele>401</ele>
        <time>2023-02-16T11:57:15.201Z</time>
      </trkpt>
      <trkpt lat="48.24662" lon="6.9113">
        <ele>400.9</ele>
        <time>2023-02-16T11:57:19.646Z</time>
      </trkpt>
      <trkpt lat="48.24656" lon="6.91154">
        <ele>401</ele>
        <time>2023-02-16T11:57:27.035Z</time>
      </trkpt>
      <trkpt lat="48.24645" lon="6.91226">
        <ele>400.9</ele>
        <time>2023-02-16T11:57:47.813Z</time>
      </trkpt>
      <trkpt lat="48.24637" lon="6.9128">
        <ele>403.3</ele>
        <time>2023-02-16T11:58:07.110Z</time>
      </trkpt>
      <trkpt lat="48.24631" lon="6.91311">
        <ele>405.2</ele>
        <time>2023-02-16T11:58:19.293Z</time>
      </trkpt>
      <trkpt lat="48.24626" lon="6.91334">
        <ele>406.3</ele>
        <time>2023-02-16T11:58:27.821Z</time>
      </trkpt>
      <trkpt lat="48.24619" lon="6.91366">
        <ele>407.6</ele>
        <time>2023-02-16T11:58:39.293Z</time>
      </trkpt>
      <trkpt lat="48.2461" lon="6.91409">
        <ele>408.5</ele>
        <time>2023-02-16T11:58:53.309Z</time>
      </trkpt>
      <trkpt lat="48.2461" lon="6.91416">
        <ele>408.2</ele>
        <time>2023-02-16T11:58:55.043Z</time>
      </trkpt>
      <trkpt lat="48.24609" lon="6.91424">
        <ele>408.4</ele>
        <time>2023-02-16T11:58:57.630Z</time>
      </trkpt>
      <trkpt lat="48.24608" lon="6.91434">
        <ele>408.6</ele>
        <time>2023-02-16T11:59:00.772Z</time>
      </trkpt>
      <trkpt lat="48.24608" lon="6.91442">
        <ele>408.6</ele>
        <time>2023-02-16T11:59:03.036Z</time>
      </trkpt>
      <trkpt lat="48.24608" lon="6.91456">
        <ele>408.6</ele>
        <time>2023-02-16T11:59:06.999Z</time>
      </trkpt>
      <trkpt lat="48.2461" lon="6.91475">
        <ele>408.2</ele>
        <time>2023-02-16T11:59:11.954Z</time>
      </trkpt>
      <trkpt lat="48.2461" lon="6.91499">
        <ele>408.2</ele>
        <time>2023-02-16T11:59:18.747Z</time>
      </trkpt>
      <trkpt lat="48.24611" lon="6.91515">
        <ele>408</ele>
        <time>2023-02-16T11:59:23.044Z</time>
      </trkpt>
      <trkpt lat="48.2461" lon="6.91532">
        <ele>408.2</ele>
        <time>2023-02-16T11:59:28.147Z</time>
      </trkpt>
      <trkpt lat="48.24607" lon="6.91556">
        <ele>408.7</ele>
        <time>2023-02-16T11:59:35.759Z</time>
      </trkpt>
      <trkpt lat="48.24603" lon="6.9158">
        <ele>408.8</ele>
        <time>2023-02-16T11:59:42.894Z</time>
      </trkpt>
      <trkpt lat="48.246" lon="6.91607">
        <ele>409.1</ele>
        <time>2023-02-16T11:59:51.049Z</time>
      </trkpt>
      <trkpt lat="48.24597" lon="6.91636">
        <ele>409.5</ele>
        <time>2023-02-16T11:59:59.903Z</time>
      </trkpt>
      <trkpt lat="48.24597" lon="6.91651">
        <ele>409.5</ele>
        <time>2023-02-16T12:00:04.149Z</time>
      </trkpt>
      <trkpt lat="48.24597" lon="6.91663">
        <ele>409.5</ele>
        <time>2023-02-16T12:00:07.546Z</time>
      </trkpt>
      <trkpt lat="48.24598" lon="6.91677">
        <ele>409.7</ele>
        <time>2023-02-16T12:00:11.805Z</time>
      </trkpt>
      <trkpt lat="48.24597" lon="6.91692">
        <ele>410.5</ele>
        <time>2023-02-16T12:00:17.328Z</time>
      </trkpt>
      <trkpt lat="48.24596" lon="6.9171">
        <ele>410.7</ele>
        <time>2023-02-16T12:00:22.712Z</time>
      </trkpt>
      <trkpt lat="48.24593" lon="6.91732">
        <ele>411</ele>
        <time>2023-02-16T12:00:29.478Z</time>
      </trkpt>
      <trkpt lat="48.2459" lon="6.9175">
        <ele>411</ele>
        <time>2023-02-16T12:00:34.731Z</time>
      </trkpt>
      <trkpt lat="48.24588" lon="6.91763">
        <ele>410.9</ele>
        <time>2023-02-16T12:00:38.379Z</time>
      </trkpt>
      <trkpt lat="48.24586" lon="6.91772">
        <ele>410.9</ele>
        <time>2023-02-16T12:00:41.065Z</time>
      </trkpt>
      <trkpt lat="48.24578" lon="6.91791">
        <ele>411.5</ele>
        <time>2023-02-16T12:00:48.286Z</time>
      </trkpt>
      <trkpt lat="48.24568" lon="6.91812">
        <ele>413.1</ele>
        <time>2023-02-16T12:00:58.187Z</time>
      </trkpt>
      <trkpt lat="48.24562" lon="6.91828">
        <ele>413.7</ele>
        <time>2023-02-16T12:01:04.261Z</time>
      </trkpt>
      <trkpt lat="48.24554" lon="6.91857">
        <ele>414.6</ele>
        <time>2023-02-16T12:01:14.442Z</time>
      </trkpt>
      <trkpt lat="48.2455" lon="6.91873">
        <ele>415.1</ele>
        <time>2023-02-16T12:01:20.001Z</time>
      </trkpt>
      <trkpt lat="48.24549" lon="6.91875">
        <ele>415.3</ele>
        <time>2023-02-16T12:01:21.056Z</time>
      </trkpt>
      <trkpt lat="48.24542" lon="6.91901">
        <ele>415.6</ele>
        <time>2023-02-16T12:01:29.400Z</time>
      </trkpt>
      <trkpt lat="48.24536" lon="6.91928">
        <ele>415.1</ele>
        <time>2023-02-16T12:01:36.838Z</time>
      </trkpt>
      <trkpt lat="48.24531" lon="6.91954">
        <ele>415.5</ele>
        <time>2023-02-16T12:01:45.048Z</time>
      </trkpt>
      <trkpt lat="48.24527" lon="6.91979">
        <ele>416.1</ele>
        <time>2023-02-16T12:01:53.174Z</time>
      </trkpt>
      <trkpt lat="48.24523" lon="6.92007">
        <ele>416.4</ele>
        <time>2023-02-16T12:02:01.686Z</time>
      </trkpt>
      <trkpt lat="48.24519" lon="6.92045">
        <ele>416.7</ele>
        <time>2023-02-16T12:02:12.978Z</time>
      </trkpt>
      <trkpt lat="48.24516" lon="6.9207">
        <ele>417.3</ele>
        <time>2023-02-16T12:02:21.018Z</time>
      </trkpt>
      <trkpt lat="48.24508" lon="6.9211">
        <ele>418.4</ele>
        <time>2023-02-16T12:02:34.411Z</time>
      </trkpt>
      <trkpt lat="48.24498" lon="6.92149">
        <ele>419.3</ele>
        <time>2023-02-16T12:02:47.505Z</time>
      </trkpt>
      <trkpt lat="48.24486" lon="6.92188">
        <ele>421</ele>
        <time>2023-02-16T12:03:02.208Z</time>
      </trkpt>
      <trkpt lat="48.24474" lon="6.92215">
        <ele>422.8</ele>
        <time>2023-02-16T12:03:14.246Z</time>
      </trkpt>
      <trkpt lat="48.24463" lon="6.9223">
        <ele>424.3</ele>
        <time>2023-02-16T12:03:23.041Z</time>
      </trkpt>
      <trkpt lat="48.24452" lon="6.92239">
        <ele>425.8</ele>
        <time>2023-02-16T12:03:30.965Z</time>
      </trkpt>
      <trkpt lat="48.24442" lon="6.92248">
        <ele>427.2</ele>
        <time>2023-02-16T12:03:38.349Z</time>
      </trkpt>
      <trkpt lat="48.24439" lon="6.92249">
        <ele>427.6</ele>
        <time>2023-02-16T12:03:40.367Z</time>
      </trkpt>
      <trkpt lat="48.24429" lon="6.92254">
        <ele>428.7</ele>
        <time>2023-02-16T12:03:46.681Z</time>
      </trkpt>
      <trkpt lat="48.24417" lon="6.92258">
        <ele>430</ele>
        <time>2023-02-16T12:03:54.081Z</time>
      </trkpt>
      <trkpt lat="48.244" lon="6.92259">
        <ele>431.8</ele>
        <time>2023-02-16T12:04:04.324Z</time>
      </trkpt>
      <trkpt lat="48.24385" lon="6.9226">
        <ele>433.4</ele>
        <time>2023-02-16T12:04:13.388Z</time>
      </trkpt>
      <trkpt lat="48.24369" lon="6.9226">
        <ele>434.9</ele>
        <time>2023-02-16T12:04:22.625Z</time>
      </trkpt>
      <trkpt lat="48.2436" lon="6.92263">
        <ele>435.6</ele>
        <time>2023-02-16T12:04:27.633Z</time>
      </trkpt>
      <trkpt lat="48.24353" lon="6.92267">
        <ele>436</ele>
        <time>2023-02-16T12:04:31.406Z</time>
      </trkpt>
      <trkpt lat="48.24349" lon="6.9227">
        <ele>436.2</ele>
        <time>2023-02-16T12:04:33.595Z</time>
      </trkpt>
      <trkpt lat="48.24347" lon="6.92275">
        <ele>436.1</ele>
        <time>2023-02-16T12:04:35.123Z</time>
      </trkpt>
      <trkpt lat="48.24345" lon="6.92279">
        <ele>436.1</ele>
        <time>2023-02-16T12:04:36.538Z</time>
      </trkpt>
      <trkpt lat="48.24345" lon="6.92285">
        <ele>435.9</ele>
        <time>2023-02-16T12:04:38.024Z</time>
      </trkpt>
      <trkpt lat="48.24345" lon="6.92289">
        <ele>435.8</ele>
        <time>2023-02-16T12:04:39.036Z</time>
      </trkpt>
      <trkpt lat="48.24344" lon="6.92294">
        <ele>435.6</ele>
        <time>2023-02-16T12:04:40.329Z</time>
      </trkpt>
      <trkpt lat="48.24344" lon="6.92296">
        <ele>435.6</ele>
        <time>2023-02-16T12:04:40.895Z</time>
      </trkpt>
      <trkpt lat="48.24345" lon="6.92301">
        <ele>435.3</ele>
        <time>2023-02-16T12:04:42.188Z</time>
      </trkpt>
      <trkpt lat="48.24349" lon="6.92311">
        <ele>435.3</ele>
        <time>2023-02-16T12:04:45.490Z</time>
      </trkpt>
      <trkpt lat="48.24361" lon="6.92321">
        <ele>435.1</ele>
        <time>2023-02-16T12:04:51.070Z</time>
      </trkpt>
      <trkpt lat="48.24384" lon="6.92337">
        <ele>435</ele>
        <time>2023-02-16T12:05:01.714Z</time>
      </trkpt>
      <trkpt lat="48.24403" lon="6.92347">
        <ele>435.4</ele>
        <time>2023-02-16T12:05:10.818Z</time>
      </trkpt>
      <trkpt lat="48.24407" lon="6.92348">
        <ele>435.3</ele>
        <time>2023-02-16T12:05:12.418Z</time>
      </trkpt>
      <trkpt lat="48.24411" lon="6.92348">
        <ele>435</ele>
        <time>2023-02-16T12:05:13.905Z</time>
      </trkpt>
      <trkpt lat="48.24415" lon="6.92348">
        <ele>434.8</ele>
        <time>2023-02-16T12:05:15.393Z</time>
      </trkpt>
      <trkpt lat="48.24419" lon="6.92347">
        <ele>434.3</ele>
        <time>2023-02-16T12:05:16.901Z</time>
      </trkpt>
      <trkpt lat="48.24423" lon="6.92346">
        <ele>433.8</ele>
        <time>2023-02-16T12:05:18.409Z</time>
      </trkpt>
      <trkpt lat="48.24427" lon="6.92347">
        <ele>433.7</ele>
        <time>2023-02-16T12:05:20.009Z</time>
      </trkpt>
      <trkpt lat="48.2443" lon="6.92347">
        <ele>433.5</ele>
        <time>2023-02-16T12:05:21.124Z</time>
      </trkpt>
      <trkpt lat="48.24435" lon="6.92348">
        <ele>433.3</ele>
        <time>2023-02-16T12:05:23.028Z</time>
      </trkpt>
      <trkpt lat="48.24439" lon="6.9235">
        <ele>433.4</ele>
        <time>2023-02-16T12:05:24.957Z</time>
      </trkpt>
      <trkpt lat="48.24442" lon="6.92352">
        <ele>433.5</ele>
        <time>2023-02-16T12:05:26.493Z</time>
      </trkpt>
      <trkpt lat="48.24446" lon="6.92356">
        <ele>433.9</ele>
        <time>2023-02-16T12:05:29.168Z</time>
      </trkpt>
      <trkpt lat="48.24456" lon="6.92372">
        <ele>435.3</ele>
        <time>2023-02-16T12:05:37.665Z</time>
      </trkpt>
      <trkpt lat="48.24465" lon="6.92391">
        <ele>437</ele>
        <time>2023-02-16T12:05:47.135Z</time>
      </trkpt>
      <trkpt lat="48.24477" lon="6.92414">
        <ele>438.4</ele>
        <time>2023-02-16T12:05:57.563Z</time>
      </trkpt>
      <trkpt lat="48.24489" lon="6.92438">
        <ele>439.3</ele>
        <time>2023-02-16T12:06:07.360Z</time>
      </trkpt>
      <trkpt lat="48.24492" lon="6.92449">
        <ele>439.7</ele>
        <time>2023-02-16T12:06:11.310Z</time>
      </trkpt>
      <trkpt lat="48.24496" lon="6.92465">
        <ele>440</ele>
        <time>2023-02-16T12:06:16.564Z</time>
      </trkpt>
      <trkpt lat="48.24497" lon="6.92475">
        <ele>440.4</ele>
        <time>2023-02-16T12:06:20.024Z</time>
      </trkpt>
      <trkpt lat="48.24498" lon="6.92486">
        <ele>441.1</ele>
        <time>2023-02-16T12:06:24.306Z</time>
      </trkpt>
      <trkpt lat="48.245" lon="6.92506">
        <ele>442.2</ele>
        <time>2023-02-16T12:06:31.765Z</time>
      </trkpt>
      <trkpt lat="48.24503" lon="6.92531">
        <ele>443.1</ele>
        <time>2023-02-16T12:06:40.282Z</time>
      </trkpt>
      <trkpt lat="48.24506" lon="6.92563">
        <ele>444.8</ele>
        <time>2023-02-16T12:06:52.093Z</time>
      </trkpt>
      <trkpt lat="48.24508" lon="6.92578">
        <ele>445.9</ele>
        <time>2023-02-16T12:06:58.274Z</time>
      </trkpt>
      <trkpt lat="48.24508" lon="6.92587">
        <ele>446.5</ele>
        <time>2023-02-16T12:07:01.811Z</time>
      </trkpt>
      <trkpt lat="48.24508" lon="6.92596">
        <ele>446.9</ele>
        <time>2023-02-16T12:07:04.967Z</time>
      </trkpt>
      <trkpt lat="48.24507" lon="6.92606">
        <ele>447.3</ele>
        <time>2023-02-16T12:07:08.428Z</time>
      </trkpt>
      <trkpt lat="48.24507" lon="6.92616">
        <ele>447.7</ele>
        <time>2023-02-16T12:07:11.858Z</time>
      </trkpt>
      <trkpt lat="48.24505" lon="6.92627">
        <ele>447.9</ele>
        <time>2023-02-16T12:07:15.363Z</time>
      </trkpt>
      <trkpt lat="48.24503" lon="6.92638">
        <ele>448.2</ele>
        <time>2023-02-16T12:07:19.019Z</time>
      </trkpt>
      <trkpt lat="48.24499" lon="6.92654">
        <ele>448.5</ele>
        <time>2023-02-16T12:07:24.272Z</time>
      </trkpt>
      <trkpt lat="48.24497" lon="6.9266">
        <ele>448.6</ele>
        <time>2023-02-16T12:07:26.309Z</time>
      </trkpt>
      <trkpt lat="48.24494" lon="6.92666">
        <ele>448.5</ele>
        <time>2023-02-16T12:07:28.307Z</time>
      </trkpt>
      <trkpt lat="48.24497" lon="6.92671">
        <ele>448.8</ele>
        <time>2023-02-16T12:07:30.669Z</time>
        <extensions>
          <visugpx:TrkExtension xmlns:visugpx="https://www.visugpx.com/editgpx/">
            <visugpx:node>18</visugpx:node>
            </visugpx:TrkExtension>
        </extensions>
      </trkpt>
      <trkpt lat="48.24494" lon="6.92666">
        <ele>448.5</ele>
        <time>2023-02-16T12:07:32.336Z</time>
      </trkpt>
      <trkpt lat="48.24497" lon="6.9266">
        <ele>448.6</ele>
        <time>2023-02-16T12:07:34.596Z</time>
      </trkpt>
      <trkpt lat="48.24499" lon="6.92654">
        <ele>448.5</ele>
        <time>2023-02-16T12:07:36.371Z</time>
      </trkpt>
      <trkpt lat="48.24492" lon="6.92641">
        <ele>447.8</ele>
        <time>2023-02-16T12:07:40.511Z</time>
      </trkpt>
      <trkpt lat="48.24488" lon="6.92632">
        <ele>447.4</ele>
        <time>2023-02-16T12:07:43.191Z</time>
      </trkpt>
      <trkpt lat="48.24482" lon="6.92618">
        <ele>447.1</ele>
        <time>2023-02-16T12:07:47.533Z</time>
      </trkpt>
      <trkpt lat="48.24477" lon="6.92604">
        <ele>446.7</ele>
        <time>2023-02-16T12:07:51.546Z</time>
      </trkpt>
      <trkpt lat="48.24472" lon="6.92588">
        <ele>446.2</ele>
        <time>2023-02-16T12:07:55.951Z</time>
      </trkpt>
      <trkpt lat="48.24463" lon="6.92569">
        <ele>446.3</ele>
        <time>2023-02-16T12:08:02.683Z</time>
      </trkpt>
      <trkpt lat="48.24454" lon="6.92555">
        <ele>447</ele>
        <time>2023-02-16T12:08:09.225Z</time>
      </trkpt>
      <trkpt lat="48.24442" lon="6.92537">
        <ele>448.3</ele>
        <time>2023-02-16T12:08:18.460Z</time>
      </trkpt>
      <trkpt lat="48.24433" lon="6.92528">
        <ele>449.2</ele>
        <time>2023-02-16T12:08:24.480Z</time>
      </trkpt>
      <trkpt lat="48.24421" lon="6.92518">
        <ele>450.5</ele>
        <time>2023-02-16T12:08:32.430Z</time>
      </trkpt>
      <trkpt lat="48.24406" lon="6.92508">
        <ele>451.9</ele>
        <time>2023-02-16T12:08:41.633Z</time>
      </trkpt>
      <trkpt lat="48.24395" lon="6.92503">
        <ele>452.6</ele>
        <time>2023-02-16T12:08:47.569Z</time>
      </trkpt>
      <trkpt lat="48.24388" lon="6.92499">
        <ele>453</ele>
        <time>2023-02-16T12:08:51.342Z</time>
      </trkpt>
      <trkpt lat="48.24384" lon="6.92498">
        <ele>453.3</ele>
        <time>2023-02-16T12:08:53.530Z</time>
      </trkpt>
      <trkpt lat="48.24377" lon="6.92496">
        <ele>453.7</ele>
        <time>2023-02-16T12:08:57.152Z</time>
      </trkpt>
      <trkpt lat="48.2437" lon="6.92495">
        <ele>454.2</ele>
        <time>2023-02-16T12:09:00.910Z</time>
      </trkpt>
      <trkpt lat="48.24363" lon="6.92494">
        <ele>454.6</ele>
        <time>2023-02-16T12:09:04.493Z</time>
      </trkpt>
      <trkpt lat="48.24353" lon="6.92493">
        <ele>455.3</ele>
        <time>2023-02-16T12:09:09.826Z</time>
      </trkpt>
      <trkpt lat="48.24344" lon="6.92494">
        <ele>455.9</ele>
        <time>2023-02-16T12:09:14.575Z</time>
      </trkpt>
      <trkpt lat="48.24332" lon="6.92495">
        <ele>456.7</ele>
        <time>2023-02-16T12:09:20.900Z</time>
      </trkpt>
      <trkpt lat="48.24324" lon="6.92497">
        <ele>457.1</ele>
        <time>2023-02-16T12:09:24.931Z</time>
      </trkpt>
      <trkpt lat="48.24317" lon="6.92497">
        <ele>457.4</ele>
        <time>2023-02-16T12:09:28.338Z</time>
      </trkpt>
      <trkpt lat="48.24306" lon="6.92499">
        <ele>457.9</ele>
        <time>2023-02-16T12:09:33.771Z</time>
      </trkpt>
      <trkpt lat="48.243" lon="6.925">
        <ele>458.2</ele>
        <time>2023-02-16T12:09:36.776Z</time>
      </trkpt>
      <trkpt lat="48.24282" lon="6.92498">
        <ele>458.7</ele>
        <time>2023-02-16T12:09:45.143Z</time>
      </trkpt>
      <trkpt lat="48.24263" lon="6.9249">
        <ele>458.5</ele>
        <time>2023-02-16T12:09:53.274Z</time>
      </trkpt>
      <trkpt lat="48.24247" lon="6.92484">
        <ele>458.6</ele>
        <time>2023-02-16T12:10:00.416Z</time>
      </trkpt>
      <trkpt lat="48.24235" lon="6.92478">
        <ele>459.2</ele>
        <time>2023-02-16T12:10:06.665Z</time>
      </trkpt>
      <trkpt lat="48.2422" lon="6.92469">
        <ele>459.7</ele>
        <time>2023-02-16T12:10:14.231Z</time>
      </trkpt>
      <trkpt lat="48.24208" lon="6.92459">
        <ele>459</ele>
        <time>2023-02-16T12:10:19.335Z</time>
      </trkpt>
      <trkpt lat="48.242" lon="6.92451">
        <ele>458.9</ele>
        <time>2023-02-16T12:10:23.293Z</time>
      </trkpt>
      <trkpt lat="48.24191" lon="6.9244">
        <ele>459.1</ele>
        <time>2023-02-16T12:10:28.497Z</time>
      </trkpt>
      <trkpt lat="48.24184" lon="6.92431">
        <ele>459.3</ele>
        <time>2023-02-16T12:10:32.689Z</time>
      </trkpt>
      <trkpt lat="48.2418" lon="6.92422">
        <ele>459.7</ele>
        <time>2023-02-16T12:10:36.344Z</time>
      </trkpt>
      <trkpt lat="48.24177" lon="6.92413">
        <ele>460.2</ele>
        <time>2023-02-16T12:10:39.968Z</time>
      </trkpt>
      <trkpt lat="48.24171" lon="6.92399">
        <ele>461.1</ele>
        <time>2023-02-16T12:10:46.099Z</time>
      </trkpt>
      <trkpt lat="48.24165" lon="6.92382">
        <ele>462</ele>
        <time>2023-02-16T12:10:52.926Z</time>
      </trkpt>
      <trkpt lat="48.24159" lon="6.92364">
        <ele>462.2</ele>
        <time>2023-02-16T12:10:58.894Z</time>
      </trkpt>
      <trkpt lat="48.24151" lon="6.92341">
        <ele>463.7</ele>
        <time>2023-02-16T12:11:08.634Z</time>
      </trkpt>
      <trkpt lat="48.24142" lon="6.92321">
        <ele>465.2</ele>
        <time>2023-02-16T12:11:17.901Z</time>
      </trkpt>
      <trkpt lat="48.24134" lon="6.923">
        <ele>466.4</ele>
        <time>2023-02-16T12:11:26.609Z</time>
      </trkpt>
      <trkpt lat="48.24124" lon="6.92281">
        <ele>467.4</ele>
        <time>2023-02-16T12:11:34.969Z</time>
      </trkpt>
      <trkpt lat="48.24116" lon="6.92268">
        <ele>468.1</ele>
        <time>2023-02-16T12:11:41.026Z</time>
      </trkpt>
      <trkpt lat="48.24107" lon="6.92258">
        <ele>469</ele>
        <time>2023-02-16T12:11:47.200Z</time>
      </trkpt>
      <trkpt lat="48.241" lon="6.9225">
        <ele>469.8</ele>
        <time>2023-02-16T12:11:52.229Z</time>
      </trkpt>
      <trkpt lat="48.24092" lon="6.92244">
        <ele>470.7</ele>
        <time>2023-02-16T12:11:57.517Z</time>
      </trkpt>
      <trkpt lat="48.24086" lon="6.9224">
        <ele>471.5</ele>
        <time>2023-02-16T12:12:01.701Z</time>
      </trkpt>
      <trkpt lat="48.24079" lon="6.92237">
        <ele>471.9</ele>
        <time>2023-02-16T12:12:05.388Z</time>
      </trkpt>
      <trkpt lat="48.24075" lon="6.92235">
        <ele>472.1</ele>
        <time>2023-02-16T12:12:07.471Z</time>
      </trkpt>
      <trkpt lat="48.24066" lon="6.92232">
        <ele>472.3</ele>
        <time>2023-02-16T12:12:11.663Z</time>
      </trkpt>
      <trkpt lat="48.24054" lon="6.92226">
        <ele>472.8</ele>
        <time>2023-02-16T12:12:17.754Z</time>
      </trkpt>
      <trkpt lat="48.24043" lon="6.92221">
        <ele>473.5</ele>
        <time>2023-02-16T12:12:23.689Z</time>
      </trkpt>
      <trkpt lat="48.24033" lon="6.92212">
        <ele>474.2</ele>
        <time>2023-02-16T12:12:29.693Z</time>
      </trkpt>
      <trkpt lat="48.24027" lon="6.92207">
        <ele>474.5</ele>
        <time>2023-02-16T12:12:33.043Z</time>
      </trkpt>
      <trkpt lat="48.24019" lon="6.92197">
        <ele>474.6</ele>
        <time>2023-02-16T12:12:37.601Z</time>
      </trkpt>
      <trkpt lat="48.24011" lon="6.92188">
        <ele>474.9</ele>
        <time>2023-02-16T12:12:42.269Z</time>
      </trkpt>
      <trkpt lat="48.24009" lon="6.92185">
        <ele>475</ele>
        <time>2023-02-16T12:12:43.612Z</time>
      </trkpt>
      <trkpt lat="48.24005" lon="6.92179">
        <ele>475.3</ele>
        <time>2023-02-16T12:12:46.457Z</time>
      </trkpt>
      <trkpt lat="48.23999" lon="6.92168">
        <ele>475.8</ele>
        <time>2023-02-16T12:12:51.219Z</time>
      </trkpt>
      <trkpt lat="48.23993" lon="6.92154">
        <ele>476</ele>
        <time>2023-02-16T12:12:56.204Z</time>
      </trkpt>
      <trkpt lat="48.23988" lon="6.92144">
        <ele>476</ele>
        <time>2023-02-16T12:12:59.743Z</time>
      </trkpt>
      <trkpt lat="48.23982" lon="6.92131">
        <ele>475.8</ele>
        <time>2023-02-16T12:13:03.970Z</time>
      </trkpt>
      <trkpt lat="48.23975" lon="6.92116">
        <ele>475.3</ele>
        <time>2023-02-16T12:13:08.554Z</time>
      </trkpt>
      <trkpt lat="48.23968" lon="6.92097">
        <ele>475.1</ele>
        <time>2023-02-16T12:13:14.447Z</time>
      </trkpt>
      <trkpt lat="48.23959" lon="6.92076">
        <ele>474.8</ele>
        <time>2023-02-16T12:13:21.138Z</time>
      </trkpt>
      <trkpt lat="48.23948" lon="6.9205">
        <ele>474.8</ele>
        <time>2023-02-16T12:13:29.858Z</time>
      </trkpt>
      <trkpt lat="48.23936" lon="6.92026">
        <ele>475.5</ele>
        <time>2023-02-16T12:13:39.343Z</time>
      </trkpt>
      <trkpt lat="48.23923" lon="6.91999">
        <ele>476.5</ele>
        <time>2023-02-16T12:13:50.222Z</time>
      </trkpt>
      <trkpt lat="48.2391" lon="6.91974">
        <ele>476.4</ele>
        <time>2023-02-16T12:13:59.071Z</time>
      </trkpt>
      <trkpt lat="48.239" lon="6.91955">
        <ele>476.5</ele>
        <time>2023-02-16T12:14:06.059Z</time>
      </trkpt>
      <trkpt lat="48.23891" lon="6.91941">
        <ele>477.1</ele>
        <time>2023-02-16T12:14:12.438Z</time>
      </trkpt>
      <trkpt lat="48.23885" lon="6.91935">
        <ele>477.2</ele>
        <time>2023-02-16T12:14:15.637Z</time>
      </trkpt>
      <trkpt lat="48.23878" lon="6.91928">
        <ele>477.4</ele>
        <time>2023-02-16T12:14:19.487Z</time>
      </trkpt>
      <trkpt lat="48.23871" lon="6.91924">
        <ele>477.6</ele>
        <time>2023-02-16T12:14:22.948Z</time>
      </trkpt>
      <trkpt lat="48.23864" lon="6.91921">
        <ele>477.7</ele>
        <time>2023-02-16T12:14:26.177Z</time>
      </trkpt>
      <trkpt lat="48.23859" lon="6.9192">
        <ele>477.8</ele>
        <time>2023-02-16T12:14:28.458Z</time>
      </trkpt>
      <trkpt lat="48.23853" lon="6.9192">
        <ele>478</ele>
        <time>2023-02-16T12:14:31.290Z</time>
      </trkpt>
      <trkpt lat="48.23848" lon="6.9192">
        <ele>478.1</ele>
        <time>2023-02-16T12:14:33.551Z</time>
      </trkpt>
      <trkpt lat="48.23841" lon="6.91921">
        <ele>478.2</ele>
        <time>2023-02-16T12:14:36.675Z</time>
      </trkpt>
      <trkpt lat="48.23835" lon="6.91921">
        <ele>478.3</ele>
        <time>2023-02-16T12:14:39.361Z</time>
      </trkpt>
      <trkpt lat="48.23828" lon="6.91922">
        <ele>478.8</ele>
        <time>2023-02-16T12:14:43.119Z</time>
      </trkpt>
      <trkpt lat="48.23819" lon="6.91924">
        <ele>479.5</ele>
        <time>2023-02-16T12:14:48.077Z</time>
      </trkpt>
      <trkpt lat="48.23807" lon="6.91925">
        <ele>480.6</ele>
        <time>2023-02-16T12:14:54.962Z</time>
      </trkpt>
      <trkpt lat="48.23801" lon="6.91925">
        <ele>481.2</ele>
        <time>2023-02-16T12:14:58.502Z</time>
      </trkpt>
      <trkpt lat="48.23797" lon="6.91926">
        <ele>481.5</ele>
        <time>2023-02-16T12:15:00.690Z</time>
      </trkpt>
      <trkpt lat="48.23791" lon="6.91927">
        <ele>481.9</ele>
        <time>2023-02-16T12:15:03.864Z</time>
      </trkpt>
      <trkpt lat="48.23784" lon="6.9193">
        <ele>482.4</ele>
        <time>2023-02-16T12:15:07.722Z</time>
      </trkpt>
      <trkpt lat="48.23779" lon="6.91933">
        <ele>482.7</ele>
        <time>2023-02-16T12:15:10.456Z</time>
      </trkpt>
      <trkpt lat="48.23774" lon="6.91936">
        <ele>482.9</ele>
        <time>2023-02-16T12:15:13.029Z</time>
      </trkpt>
      <trkpt lat="48.23769" lon="6.9194">
        <ele>483</ele>
        <time>2023-02-16T12:15:15.573Z</time>
      </trkpt>
      <trkpt lat="48.23764" lon="6.91943">
        <ele>483.1</ele>
        <time>2023-02-16T12:15:17.998Z</time>
      </trkpt>
      <trkpt lat="48.23759" lon="6.91945">
        <ele>483.3</ele>
        <time>2023-02-16T12:15:20.482Z</time>
      </trkpt>
      <trkpt lat="48.23755" lon="6.91946">
        <ele>483.5</ele>
        <time>2023-02-16T12:15:22.498Z</time>
      </trkpt>
      <trkpt lat="48.23754" lon="6.91946">
        <ele>483.6</ele>
        <time>2023-02-16T12:15:23.088Z</time>
      </trkpt>
      <trkpt lat="48.23752" lon="6.91946">
        <ele>483.7</ele>
        <time>2023-02-16T12:15:24.084Z</time>
      </trkpt>
      <trkpt lat="48.23749" lon="6.91946">
        <ele>484</ele>
        <time>2023-02-16T12:15:25.854Z</time>
      </trkpt>
      <trkpt lat="48.23745" lon="6.91946">
        <ele>484.2</ele>
        <time>2023-02-16T12:15:27.847Z</time>
      </trkpt>
      <trkpt lat="48.23739" lon="6.91945">
        <ele>484.8</ele>
        <time>2023-02-16T12:15:31.401Z</time>
      </trkpt>
      <trkpt lat="48.23728" lon="6.91938">
        <ele>485.9</ele>
        <time>2023-02-16T12:15:38.258Z</time>
      </trkpt>
      <trkpt lat="48.23711" lon="6.91926">
        <ele>486.8</ele>
        <time>2023-02-16T12:15:47.553Z</time>
      </trkpt>
      <trkpt lat="48.23694" lon="6.91913">
        <ele>487.1</ele>
        <time>2023-02-16T12:15:56.068Z</time>
      </trkpt>
      <trkpt lat="48.23679" lon="6.91906">
        <ele>486.8</ele>
        <time>2023-02-16T12:16:02.368Z</time>
      </trkpt>
      <trkpt lat="48.23671" lon="6.91903">
        <ele>486.6</ele>
        <time>2023-02-16T12:16:05.624Z</time>
      </trkpt>
      <trkpt lat="48.23665" lon="6.91902">
        <ele>486.5</ele>
        <time>2023-02-16T12:16:08.064Z</time>
        <extensions>
          <visugpx:TrkExtension xmlns:visugpx="https://www.visugpx.com/editgpx/">
            <visugpx:node>19</visugpx:node>
            </visugpx:TrkExtension>
        </extensions>
      </trkpt>
      <trkpt lat="48.2366" lon="6.91901">
        <ele>486.3</ele>
        <time>2023-02-16T12:16:09.967Z</time>
      </trkpt>
      <trkpt lat="48.23639" lon="6.919">
        <ele>485.6</ele>
        <time>2023-02-16T12:16:18.044Z</time>
      </trkpt>
      <trkpt lat="48.23614" lon="6.91902">
        <ele>485.1</ele>
        <time>2023-02-16T12:16:28.058Z</time>
      </trkpt>
      <trkpt lat="48.23601" lon="6.91905">
        <ele>484.6</ele>
        <time>2023-02-16T12:16:33.045Z</time>
      </trkpt>
      <trkpt lat="48.23585" lon="6.91906">
        <ele>484.1</ele>
        <time>2023-02-16T12:16:39.239Z</time>
      </trkpt>
      <trkpt lat="48.23573" lon="6.91905">
        <ele>484</ele>
        <time>2023-02-16T12:16:44.219Z</time>
      </trkpt>
      <trkpt lat="48.23556" lon="6.91899">
        <ele>484</ele>
        <time>2023-02-16T12:16:51.642Z</time>
      </trkpt>
      <trkpt lat="48.23543" lon="6.91896">
        <ele>485.4</ele>
        <time>2023-02-16T12:16:59.578Z</time>
      </trkpt>
      <trkpt lat="48.23526" lon="6.91892">
        <ele>487.2</ele>
        <time>2023-02-16T12:17:09.895Z</time>
      </trkpt>
      <trkpt lat="48.23516" lon="6.91892">
        <ele>488.3</ele>
        <time>2023-02-16T12:17:16.006Z</time>
      </trkpt>
      <trkpt lat="48.23505" lon="6.91894">
        <ele>489.5</ele>
        <time>2023-02-16T12:17:22.736Z</time>
      </trkpt>
      <trkpt lat="48.23491" lon="6.919">
        <ele>491.3</ele>
        <time>2023-02-16T12:17:32.075Z</time>
      </trkpt>
      <trkpt lat="48.2349" lon="6.919">
        <ele>491.4</ele>
        <time>2023-02-16T12:17:32.665Z</time>
      </trkpt>
      <trkpt lat="48.23477" lon="6.91913">
        <ele>493.3</ele>
        <time>2023-02-16T12:17:42.613Z</time>
      </trkpt>
      <trkpt lat="48.23465" lon="6.91929">
        <ele>495</ele>
        <time>2023-02-16T12:17:52.280Z</time>
      </trkpt>
      <trkpt lat="48.23456" lon="6.9195">
        <ele>496.3</ele>
        <time>2023-02-16T12:18:01.382Z</time>
      </trkpt>
      <trkpt lat="48.23449" lon="6.91965">
        <ele>497.3</ele>
        <time>2023-02-16T12:18:08.146Z</time>
      </trkpt>
      <trkpt lat="48.23441" lon="6.91977">
        <ele>498.4</ele>
        <time>2023-02-16T12:18:14.754Z</time>
      </trkpt>
      <trkpt lat="48.23427" lon="6.91991">
        <ele>499.5</ele>
        <time>2023-02-16T12:18:23.573Z</time>
      </trkpt>
      <trkpt lat="48.23417" lon="6.91998">
        <ele>500</ele>
        <time>2023-02-16T12:18:28.986Z</time>
      </trkpt>
      <trkpt lat="48.23412" lon="6.92003">
        <ele>499.8</ele>
        <time>2023-02-16T12:18:31.296Z</time>
      </trkpt>
      <trkpt lat="48.23392" lon="6.92015">
        <ele>499.1</ele>
        <time>2023-02-16T12:18:39.595Z</time>
      </trkpt>
      <trkpt lat="48.23384" lon="6.92017">
        <ele>498.7</ele>
        <time>2023-02-16T12:18:42.612Z</time>
      </trkpt>
      <trkpt lat="48.23377" lon="6.92017">
        <ele>498.3</ele>
        <time>2023-02-16T12:18:45.215Z</time>
      </trkpt>
      <trkpt lat="48.23367" lon="6.92017">
        <ele>497.7</ele>
        <time>2023-02-16T12:18:48.934Z</time>
      </trkpt>
      <trkpt lat="48.23358" lon="6.92014">
        <ele>497.3</ele>
        <time>2023-02-16T12:18:52.375Z</time>
      </trkpt>
      <trkpt lat="48.23344" lon="6.92005">
        <ele>497.1</ele>
        <time>2023-02-16T12:18:58.594Z</time>
      </trkpt>
      <trkpt lat="48.23326" lon="6.92">
        <ele>496.5</ele>
        <time>2023-02-16T12:19:05.642Z</time>
      </trkpt>
      <trkpt lat="48.23309" lon="6.91995">
        <ele>495.5</ele>
        <time>2023-02-16T12:19:12.084Z</time>
      </trkpt>
      <trkpt lat="48.23287" lon="6.91992">
        <ele>494.6</ele>
        <time>2023-02-16T12:19:20.393Z</time>
      </trkpt>
      <trkpt lat="48.23266" lon="6.91991">
        <ele>494.6</ele>
        <time>2023-02-16T12:19:29.323Z</time>
      </trkpt>
      <trkpt lat="48.23249" lon="6.91992">
        <ele>495</ele>
        <time>2023-02-16T12:19:37.106Z</time>
      </trkpt>
      <trkpt lat="48.23244" lon="6.91993">
        <ele>495.2</ele>
        <time>2023-02-16T12:19:39.535Z</time>
      </trkpt>
      <trkpt lat="48.23235" lon="6.91995">
        <ele>495.4</ele>
        <time>2023-02-16T12:19:43.677Z</time>
      </trkpt>
      <trkpt lat="48.23226" lon="6.91979">
        <ele>495.2</ele>
        <time>2023-02-16T12:19:49.352Z</time>
      </trkpt>
      <trkpt lat="48.23221" lon="6.91971">
        <ele>495.2</ele>
        <time>2023-02-16T12:19:52.458Z</time>
      </trkpt>
      <trkpt lat="48.23211" lon="6.91963">
        <ele>496.5</ele>
        <time>2023-02-16T12:19:59.499Z</time>
      </trkpt>
      <trkpt lat="48.23197" lon="6.91953">
        <ele>498</ele>
        <time>2023-02-16T12:20:08.543Z</time>
      </trkpt>
      <trkpt lat="48.23185" lon="6.91941">
        <ele>499.1</ele>
        <time>2023-02-16T12:20:16.384Z</time>
      </trkpt>
      <trkpt lat="48.23175" lon="6.91928">
        <ele>499.6</ele>
        <time>2023-02-16T12:20:22.718Z</time>
      </trkpt>
      <trkpt lat="48.23167" lon="6.91916">
        <ele>499.9</ele>
        <time>2023-02-16T12:20:27.941Z</time>
      </trkpt>
      <trkpt lat="48.23149" lon="6.91892">
        <ele>499</ele>
        <time>2023-02-16T12:20:37.085Z</time>
      </trkpt>
      <trkpt lat="48.23144" lon="6.91886">
        <ele>498.8</ele>
        <time>2023-02-16T12:20:39.561Z</time>
      </trkpt>
      <trkpt lat="48.23135" lon="6.9188">
        <ele>499.3</ele>
        <time>2023-02-16T12:20:44.480Z</time>
      </trkpt>
      <trkpt lat="48.2312" lon="6.91872">
        <ele>500.7</ele>
        <time>2023-02-16T12:20:53.487Z</time>
      </trkpt>
      <trkpt lat="48.23114" lon="6.91868">
        <ele>501.2</ele>
        <time>2023-02-16T12:20:57.056Z</time>
      </trkpt>
      <trkpt lat="48.23109" lon="6.91864">
        <ele>501.6</ele>
        <time>2023-02-16T12:21:00.078Z</time>
      </trkpt>
      <trkpt lat="48.23097" lon="6.91849">
        <ele>501.9</ele>
        <time>2023-02-16T12:21:07.125Z</time>
      </trkpt>
      <trkpt lat="48.23082" lon="6.91826">
        <ele>501.8</ele>
        <time>2023-02-16T12:21:16.109Z</time>
      </trkpt>
      <trkpt lat="48.23061" lon="6.91795">
        <ele>498.9</ele>
        <time>2023-02-16T12:21:27.062Z</time>
      </trkpt>
      <trkpt lat="48.23046" lon="6.91779">
        <ele>498</ele>
        <time>2023-02-16T12:21:33.906Z</time>
      </trkpt>
      <trkpt lat="48.23033" lon="6.91767">
        <ele>498.1</ele>
        <time>2023-02-16T12:21:40.525Z</time>
      </trkpt>
      <trkpt lat="48.23017" lon="6.91756">
        <ele>497.1</ele>
        <time>2023-02-16T12:21:47.070Z</time>
      </trkpt>
      <trkpt lat="48.23002" lon="6.91746">
        <ele>495.3</ele>
        <time>2023-02-16T12:21:53.174Z</time>
      </trkpt>
      <trkpt lat="48.22994" lon="6.91743">
        <ele>494.8</ele>
        <time>2023-02-16T12:21:56.241Z</time>
      </trkpt>
      <trkpt lat="48.22982" lon="6.91741">
        <ele>494.6</ele>
        <time>2023-02-16T12:22:01.120Z</time>
      </trkpt>
      <trkpt lat="48.22974" lon="6.91742">
        <ele>494.8</ele>
        <time>2023-02-16T12:22:04.809Z</time>
      </trkpt>
      <trkpt lat="48.22967" lon="6.91745">
        <ele>494.7</ele>
        <time>2023-02-16T12:22:07.776Z</time>
      </trkpt>
      <trkpt lat="48.2296" lon="6.91752">
        <ele>495</ele>
        <time>2023-02-16T12:22:11.776Z</time>
      </trkpt>
      <trkpt lat="48.22953" lon="6.91762">
        <ele>495.7</ele>
        <time>2023-02-16T12:22:16.963Z</time>
      </trkpt>
      <trkpt lat="48.22945" lon="6.91782">
        <ele>497.7</ele>
        <time>2023-02-16T12:22:27.114Z</time>
      </trkpt>
      <trkpt lat="48.2294" lon="6.91804">
        <ele>499.8</ele>
        <time>2023-02-16T12:22:37.487Z</time>
      </trkpt>
      <trkpt lat="48.22931" lon="6.9183">
        <ele>501.2</ele>
        <time>2023-02-16T12:22:47.939Z</time>
      </trkpt>
      <trkpt lat="48.22926" lon="6.91841">
        <ele>502</ele>
        <time>2023-02-16T12:22:52.997Z</time>
      </trkpt>
      <trkpt lat="48.22919" lon="6.91849">
        <ele>502.2</ele>
        <time>2023-02-16T12:22:57.012Z</time>
      </trkpt>
      <trkpt lat="48.22915" lon="6.91851">
        <ele>501.9</ele>
        <time>2023-02-16T12:22:58.580Z</time>
      </trkpt>
      <trkpt lat="48.22905" lon="6.91854">
        <ele>500.9</ele>
        <time>2023-02-16T12:23:02.373Z</time>
      </trkpt>
      <trkpt lat="48.22894" lon="6.91855">
        <ele>499.5</ele>
        <time>2023-02-16T12:23:06.471Z</time>
      </trkpt>
      <trkpt lat="48.22876" lon="6.91858">
        <ele>497.9</ele>
        <time>2023-02-16T12:23:13.207Z</time>
      </trkpt>
      <trkpt lat="48.22866" lon="6.91859">
        <ele>497.1</ele>
        <time>2023-02-16T12:23:16.934Z</time>
      </trkpt>
      <trkpt lat="48.22855" lon="6.91859">
        <ele>495.7</ele>
        <time>2023-02-16T12:23:21.025Z</time>
      </trkpt>
      <trkpt lat="48.22849" lon="6.91862">
        <ele>495.4</ele>
        <time>2023-02-16T12:23:23.377Z</time>
      </trkpt>
      <trkpt lat="48.22838" lon="6.91871">
        <ele>495.7</ele>
        <time>2023-02-16T12:23:29.116Z</time>
      </trkpt>
      <trkpt lat="48.22825" lon="6.91883">
        <ele>496.5</ele>
        <time>2023-02-16T12:23:36.780Z</time>
      </trkpt>
      <trkpt lat="48.22821" lon="6.91889">
        <ele>497.2</ele>
        <time>2023-02-16T12:23:40.409Z</time>
        <extensions>
          <visugpx:TrkExtension xmlns:visugpx="https://www.visugpx.com/editgpx/">
            <visugpx:node>20</visugpx:node>
            </visugpx:TrkExtension>
        </extensions>
      </trkpt>
      <trkpt lat="48.22803" lon="6.91911">
        <ele>498.3</ele>
        <time>2023-02-16T12:23:51.875Z</time>
      </trkpt>
      <trkpt lat="48.22792" lon="6.91926">
        <ele>498.3</ele>
        <time>2023-02-16T12:23:58.191Z</time>
      </trkpt>
      <trkpt lat="48.22777" lon="6.91947">
        <ele>498.3</ele>
        <time>2023-02-16T12:24:06.909Z</time>
      </trkpt>
      <trkpt lat="48.2276" lon="6.91968">
        <ele>497.8</ele>
        <time>2023-02-16T12:24:15.644Z</time>
      </trkpt>
      <trkpt lat="48.22754" lon="6.91977">
        <ele>497.9</ele>
        <time>2023-02-16T12:24:19.383Z</time>
      </trkpt>
      <trkpt lat="48.22735" lon="6.91997">
        <ele>496.1</ele>
        <time>2023-02-16T12:24:28.014Z</time>
      </trkpt>
      <trkpt lat="48.22719" lon="6.92019">
        <ele>495.5</ele>
        <time>2023-02-16T12:24:36.496Z</time>
      </trkpt>
      <trkpt lat="48.22707" lon="6.92038">
        <ele>495.5</ele>
        <time>2023-02-16T12:24:43.910Z</time>
      </trkpt>
      <trkpt lat="48.22697" lon="6.92062">
        <ele>496.9</ele>
        <time>2023-02-16T12:24:54.094Z</time>
      </trkpt>
      <trkpt lat="48.22676" lon="6.92113">
        <ele>500.7</ele>
        <time>2023-02-16T12:25:17.263Z</time>
      </trkpt>
      <trkpt lat="48.22665" lon="6.92138">
        <ele>502.5</ele>
        <time>2023-02-16T12:25:28.645Z</time>
      </trkpt>
      <trkpt lat="48.22652" lon="6.9216">
        <ele>502.9</ele>
        <time>2023-02-16T12:25:37.519Z</time>
      </trkpt>
      <trkpt lat="48.22637" lon="6.92181">
        <ele>502.7</ele>
        <time>2023-02-16T12:25:45.981Z</time>
      </trkpt>
      <trkpt lat="48.22631" lon="6.92192">
        <ele>502.9</ele>
        <time>2023-02-16T12:25:50.281Z</time>
      </trkpt>
      <trkpt lat="48.22621" lon="6.92221">
        <ele>505</ele>
        <time>2023-02-16T12:26:02.961Z</time>
      </trkpt>
      <trkpt lat="48.22612" lon="6.92246">
        <ele>506.6</ele>
        <time>2023-02-16T12:26:13.548Z</time>
      </trkpt>
      <trkpt lat="48.22604" lon="6.92266">
        <ele>508.7</ele>
        <time>2023-02-16T12:26:23.940Z</time>
      </trkpt>
      <trkpt lat="48.22599" lon="6.92275">
        <ele>509.4</ele>
        <time>2023-02-16T12:26:28.384Z</time>
      </trkpt>
      <trkpt lat="48.22589" lon="6.92285">
        <ele>509.1</ele>
        <time>2023-02-16T12:26:33.119Z</time>
      </trkpt>
      <trkpt lat="48.22572" lon="6.92295">
        <ele>508.3</ele>
        <time>2023-02-16T12:26:39.925Z</time>
      </trkpt>
      <trkpt lat="48.2255" lon="6.92311">
        <ele>508.2</ele>
        <time>2023-02-16T12:26:50.186Z</time>
      </trkpt>
      <trkpt lat="48.22538" lon="6.92322">
        <ele>508.5</ele>
        <time>2023-02-16T12:26:56.573Z</time>
      </trkpt>
      <trkpt lat="48.22532" lon="6.92326">
        <ele>508.4</ele>
        <time>2023-02-16T12:26:59.237Z</time>
      </trkpt>
      <trkpt lat="48.22521" lon="6.9233">
        <ele>508.3</ele>
        <time>2023-02-16T12:27:03.920Z</time>
      </trkpt>
      <trkpt lat="48.22513" lon="6.92332">
        <ele>508.3</ele>
        <time>2023-02-16T12:27:07.367Z</time>
      </trkpt>
      <trkpt lat="48.22505" lon="6.92333">
        <ele>508.1</ele>
        <time>2023-02-16T12:27:10.531Z</time>
      </trkpt>
      <trkpt lat="48.22477" lon="6.9233">
        <ele>507</ele>
        <time>2023-02-16T12:27:21.137Z</time>
      </trkpt>
      <trkpt lat="48.22476" lon="6.92346">
        <ele>508.1</ele>
        <time>2023-02-16T12:27:27.514Z</time>
      </trkpt>
      <trkpt lat="48.22475" lon="6.92365">
        <ele>509.5</ele>
        <time>2023-02-16T12:27:35.280Z</time>
      </trkpt>
      <trkpt lat="48.22475" lon="6.92379">
        <ele>510.6</ele>
        <time>2023-02-16T12:27:41.142Z</time>
        <extensions>
          <visugpx:TrkExtension xmlns:visugpx="https://www.visugpx.com/editgpx/">
            <visugpx:node>21</visugpx:node>
            </visugpx:TrkExtension>
        </extensions>
      </trkpt>
      <trkpt lat="48.22475" lon="6.924">
        <ele>512.1</ele>
        <time>2023-02-16T12:27:49.607Z</time>
      </trkpt>
      <trkpt lat="48.22475" lon="6.92443">
        <ele>514.2</ele>
        <time>2023-02-16T12:28:05.029Z</time>
      </trkpt>
      <trkpt lat="48.22475" lon="6.92457">
        <ele>514.8</ele>
        <time>2023-02-16T12:28:09.901Z</time>
      </trkpt>
      <trkpt lat="48.22476" lon="6.92469">
        <ele>515.4</ele>
        <time>2023-02-16T12:28:14.256Z</time>
      </trkpt>
      <trkpt lat="48.22477" lon="6.92495">
        <ele>517.2</ele>
        <time>2023-02-16T12:28:24.627Z</time>
      </trkpt>
      <trkpt lat="48.22481" lon="6.9254">
        <ele>520</ele>
        <time>2023-02-16T12:28:42.017Z</time>
      </trkpt>
      <trkpt lat="48.22486" lon="6.92572">
        <ele>522.1</ele>
        <time>2023-02-16T12:28:54.753Z</time>
      </trkpt>
      <trkpt lat="48.22491" lon="6.92615">
        <ele>523.3</ele>
        <time>2023-02-16T12:29:08.834Z</time>
      </trkpt>
      <trkpt lat="48.22495" lon="6.92639">
        <ele>522.8</ele>
        <time>2023-02-16T12:29:15.226Z</time>
      </trkpt>
      <trkpt lat="48.22496" lon="6.92649">
        <ele>522.9</ele>
        <time>2023-02-16T12:29:18.224Z</time>
      </trkpt>
      <trkpt lat="48.22499" lon="6.92671">
        <ele>522.8</ele>
        <time>2023-02-16T12:29:24.454Z</time>
      </trkpt>
      <trkpt lat="48.22501" lon="6.9271">
        <ele>520.9</ele>
        <time>2023-02-16T12:29:34.146Z</time>
      </trkpt>
      <trkpt lat="48.22504" lon="6.9275">
        <ele>517.9</ele>
        <time>2023-02-16T12:29:44.119Z</time>
      </trkpt>
      <trkpt lat="48.22506" lon="6.92772">
        <ele>516.2</ele>
        <time>2023-02-16T12:29:49.621Z</time>
      </trkpt>
      <trkpt lat="48.22507" lon="6.92818">
        <ele>512.4</ele>
        <time>2023-02-16T12:30:01.024Z</time>
      </trkpt>
      <trkpt lat="48.22511" lon="6.92902">
        <ele>505.7</ele>
        <time>2023-02-16T12:30:21.890Z</time>
      </trkpt>
      <trkpt lat="48.22512" lon="6.92941">
        <ele>503.3</ele>
        <time>2023-02-16T12:30:31.560Z</time>
      </trkpt>
      <trkpt lat="48.22513" lon="6.92976">
        <ele>500.8</ele>
        <time>2023-02-16T12:30:40.240Z</time>
      </trkpt>
      <trkpt lat="48.22515" lon="6.93013">
        <ele>498</ele>
        <time>2023-02-16T12:30:49.438Z</time>
      </trkpt>
      <trkpt lat="48.22517" lon="6.93035">
        <ele>496.2</ele>
        <time>2023-02-16T12:30:54.939Z</time>
      </trkpt>
      <trkpt lat="48.22527" lon="6.93086">
        <ele>491.8</ele>
        <time>2023-02-16T12:31:08.112Z</time>
      </trkpt>
      <trkpt lat="48.22532" lon="6.93117">
        <ele>489.6</ele>
        <time>2023-02-16T12:31:16.014Z</time>
      </trkpt>
      <trkpt lat="48.22534" lon="6.93137">
        <ele>488.8</ele>
        <time>2023-02-16T12:31:21.025Z</time>
      </trkpt>
      <trkpt lat="48.22534" lon="6.9314">
        <ele>488.7</ele>
        <time>2023-02-16T12:31:21.769Z</time>
      </trkpt>
      <trkpt lat="48.22536" lon="6.9316">
        <ele>487.6</ele>
        <time>2023-02-16T12:31:26.779Z</time>
      </trkpt>
      <trkpt lat="48.22544" lon="6.93235">
        <ele>485.4</ele>
        <time>2023-02-16T12:31:45.660Z</time>
      </trkpt>
      <trkpt lat="48.22545" lon="6.93268">
        <ele>484.6</ele>
        <time>2023-02-16T12:31:54.044Z</time>
      </trkpt>
      <trkpt lat="48.22546" lon="6.93293">
        <ele>484</ele>
        <time>2023-02-16T12:32:00.408Z</time>
      </trkpt>
      <trkpt lat="48.22546" lon="6.93313">
        <ele>483.6</ele>
        <time>2023-02-16T12:32:05.580Z</time>
      </trkpt>
      <trkpt lat="48.22551" lon="6.93352">
        <ele>484</ele>
        <time>2023-02-16T12:32:17.367Z</time>
      </trkpt>
      <trkpt lat="48.22557" lon="6.93387">
        <ele>483.9</ele>
        <time>2023-02-16T12:32:27.471Z</time>
      </trkpt>
      <trkpt lat="48.2256" lon="6.93405">
        <ele>483.3</ele>
        <time>2023-02-16T12:32:32.069Z</time>
      </trkpt>
      <trkpt lat="48.22568" lon="6.93435">
        <ele>482.3</ele>
        <time>2023-02-16T12:32:40.075Z</time>
      </trkpt>
      <trkpt lat="48.22576" lon="6.93463">
        <ele>480.7</ele>
        <time>2023-02-16T12:32:47.624Z</time>
      </trkpt>
      <trkpt lat="48.2258" lon="6.93493">
        <ele>479.3</ele>
        <time>2023-02-16T12:32:55.204Z</time>
      </trkpt>
      <trkpt lat="48.22584" lon="6.93541">
        <ele>476.5</ele>
        <time>2023-02-16T12:33:07.190Z</time>
      </trkpt>
      <trkpt lat="48.22589" lon="6.93591">
        <ele>473.2</ele>
        <time>2023-02-16T12:33:19.717Z</time>
      </trkpt>
      <trkpt lat="48.22594" lon="6.93646">
        <ele>468.8</ele>
        <time>2023-02-16T12:33:33.470Z</time>
      </trkpt>
      <trkpt lat="48.22593" lon="6.9368">
        <ele>465.4</ele>
        <time>2023-02-16T12:33:41.902Z</time>
      </trkpt>
      <trkpt lat="48.22591" lon="6.93705">
        <ele>462.9</ele>
        <time>2023-02-16T12:33:48.141Z</time>
      </trkpt>
      <trkpt lat="48.22587" lon="6.93736">
        <ele>459.5</ele>
        <time>2023-02-16T12:33:55.965Z</time>
      </trkpt>
      <trkpt lat="48.22578" lon="6.93773">
        <ele>456.5</ele>
        <time>2023-02-16T12:34:05.724Z</time>
      </trkpt>
      <trkpt lat="48.2257" lon="6.93805">
        <ele>454.5</ele>
        <time>2023-02-16T12:34:14.192Z</time>
      </trkpt>
      <trkpt lat="48.22556" lon="6.93846">
        <ele>452.1</ele>
        <time>2023-02-16T12:34:25.607Z</time>
      </trkpt>
      <trkpt lat="48.22547" lon="6.93873">
        <ele>450.9</ele>
        <time>2023-02-16T12:34:33.088Z</time>
      </trkpt>
      <trkpt lat="48.22543" lon="6.93885">
        <ele>450.6</ele>
        <time>2023-02-16T12:34:36.522Z</time>
      </trkpt>
      <trkpt lat="48.22536" lon="6.93895">
        <ele>450.1</ele>
        <time>2023-02-16T12:34:40.116Z</time>
      </trkpt>
      <trkpt lat="48.22525" lon="6.93905">
        <ele>449.1</ele>
        <time>2023-02-16T12:34:44.899Z</time>
      </trkpt>
      <trkpt lat="48.22514" lon="6.93911">
        <ele>447.7</ele>
        <time>2023-02-16T12:34:49.251Z</time>
      </trkpt>
      <trkpt lat="48.22502" lon="6.93917">
        <ele>446.2</ele>
        <time>2023-02-16T12:34:53.955Z</time>
      </trkpt>
      <trkpt lat="48.2248" lon="6.93926">
        <ele>443.1</ele>
        <time>2023-02-16T12:35:02.436Z</time>
      </trkpt>
      <trkpt lat="48.22457" lon="6.93937">
        <ele>439.8</ele>
        <time>2023-02-16T12:35:11.414Z</time>
      </trkpt>
      <trkpt lat="48.22437" lon="6.93942">
        <ele>436.7</ele>
        <time>2023-02-16T12:35:18.954Z</time>
      </trkpt>
      <trkpt lat="48.22428" lon="6.93944">
        <ele>435</ele>
        <time>2023-02-16T12:35:22.338Z</time>
      </trkpt>
      <trkpt lat="48.22411" lon="6.9395">
        <ele>432.7</ele>
        <time>2023-02-16T12:35:28.833Z</time>
      </trkpt>
      <trkpt lat="48.22403" lon="6.93953">
        <ele>431.7</ele>
        <time>2023-02-16T12:35:31.900Z</time>
      </trkpt>
      <trkpt lat="48.22389" lon="6.93966">
        <ele>429.2</ele>
        <time>2023-02-16T12:35:38.022Z</time>
      </trkpt>
      <trkpt lat="48.22372" lon="6.93985">
        <ele>428</ele>
        <time>2023-02-16T12:35:45.905Z</time>
      </trkpt>
      <trkpt lat="48.22358" lon="6.94001">
        <ele>425.8</ele>
        <time>2023-02-16T12:35:52.449Z</time>
      </trkpt>
      <trkpt lat="48.22347" lon="6.94019">
        <ele>425.3</ele>
        <time>2023-02-16T12:35:58.753Z</time>
      </trkpt>
      <trkpt lat="48.22344" lon="6.94031">
        <ele>424.8</ele>
        <time>2023-02-16T12:36:01.929Z</time>
      </trkpt>
      <trkpt lat="48.22334" lon="6.94065">
        <ele>422.1</ele>
        <time>2023-02-16T12:36:11.138Z</time>
      </trkpt>
      <trkpt lat="48.22328" lon="6.94087">
        <ele>421.8</ele>
        <time>2023-02-16T12:36:17.492Z</time>
      </trkpt>
      <trkpt lat="48.22319" lon="6.94124">
        <ele>420.3</ele>
        <time>2023-02-16T12:36:27.252Z</time>
      </trkpt>
      <trkpt lat="48.22311" lon="6.94148">
        <ele>418.3</ele>
        <time>2023-02-16T12:36:33.902Z</time>
      </trkpt>
      <trkpt lat="48.22303" lon="6.9417">
        <ele>416.8</ele>
        <time>2023-02-16T12:36:40.112Z</time>
      </trkpt>
      <trkpt lat="48.22297" lon="6.94186">
        <ele>416</ele>
        <time>2023-02-16T12:36:44.661Z</time>
      </trkpt>
      <trkpt lat="48.22287" lon="6.942">
        <ele>415.1</ele>
        <time>2023-02-16T12:36:49.747Z</time>
      </trkpt>
      <trkpt lat="48.2227" lon="6.94206">
        <ele>414.5</ele>
        <time>2023-02-16T12:36:56.440Z</time>
      </trkpt>
      <trkpt lat="48.22261" lon="6.94207">
        <ele>414.3</ele>
        <time>2023-02-16T12:37:00.026Z</time>
      </trkpt>
      <trkpt lat="48.22248" lon="6.94208">
        <ele>414</ele>
        <time>2023-02-16T12:37:05.185Z</time>
      </trkpt>
      <trkpt lat="48.22222" lon="6.94212">
        <ele>413</ele>
        <time>2023-02-16T12:37:15.087Z</time>
      </trkpt>
      <trkpt lat="48.22204" lon="6.94223">
        <ele>412.3</ele>
        <time>2023-02-16T12:37:22.499Z</time>
      </trkpt>
      <trkpt lat="48.22188" lon="6.94239">
        <ele>411.9</ele>
        <time>2023-02-16T12:37:30.170Z</time>
      </trkpt>
      <trkpt lat="48.22172" lon="6.94252">
        <ele>411.2</ele>
        <time>2023-02-16T12:37:37.058Z</time>
      </trkpt>
      <trkpt lat="48.22156" lon="6.94264">
        <ele>411.3</ele>
        <time>2023-02-16T12:37:44.793Z</time>
      </trkpt>
      <trkpt lat="48.2214" lon="6.94277">
        <ele>411</ele>
        <time>2023-02-16T12:37:52.147Z</time>
      </trkpt>
      <trkpt lat="48.22133" lon="6.9429">
        <ele>411</ele>
        <time>2023-02-16T12:37:56.881Z</time>
      </trkpt>
      <trkpt lat="48.2213" lon="6.94298">
        <ele>411</ele>
        <time>2023-02-16T12:37:59.481Z</time>
      </trkpt>
      <trkpt lat="48.22127" lon="6.94311">
        <ele>411.2</ele>
        <time>2023-02-16T12:38:03.651Z</time>
      </trkpt>
      <trkpt lat="48.22125" lon="6.94331">
        <ele>411.9</ele>
        <time>2023-02-16T12:38:10.407Z</time>
      </trkpt>
      <trkpt lat="48.22124" lon="6.94359">
        <ele>411.6</ele>
        <time>2023-02-16T12:38:17.969Z</time>
      </trkpt>
      <trkpt lat="48.22122" lon="6.94393">
        <ele>411</ele>
        <time>2023-02-16T12:38:26.892Z</time>
      </trkpt>
      <trkpt lat="48.22121" lon="6.94418">
        <ele>411</ele>
        <time>2023-02-16T12:38:33.985Z</time>
      </trkpt>
      <trkpt lat="48.22118" lon="6.94452">
        <ele>410.8</ele>
        <time>2023-02-16T12:38:43.440Z</time>
      </trkpt>
      <trkpt lat="48.22114" lon="6.94497">
        <ele>410.9</ele>
        <time>2023-02-16T12:38:56.428Z</time>
        <extensions>
          <visugpx:TrkExtension xmlns:visugpx="https://www.visugpx.com/editgpx/">
            <visugpx:node>22</visugpx:node>
            </visugpx:TrkExtension>
        </extensions>
      </trkpt>
      <trkpt lat="48.22113" lon="6.94499">
        <ele>410.9</ele>
        <time>2023-02-16T12:38:57.136Z</time>
      </trkpt>
      <trkpt lat="48.22113" lon="6.94507">
        <ele>410.9</ele>
        <time>2023-02-16T12:38:59.402Z</time>
      </trkpt>
      <trkpt lat="48.22085" lon="6.94498">
        <ele>411</ele>
        <time>2023-02-16T12:39:11.705Z</time>
      </trkpt>
      <trkpt lat="48.2208" lon="6.94496">
        <ele>411</ele>
        <time>2023-02-16T12:39:13.904Z</time>
      </trkpt>
      <trkpt lat="48.2204" lon="6.9448">
        <ele>411.7</ele>
        <time>2023-02-16T12:39:32.450Z</time>
      </trkpt>
      <trkpt lat="48.22018" lon="6.94471">
        <ele>412</ele>
        <time>2023-02-16T12:39:42.546Z</time>
      </trkpt>
      <trkpt lat="48.22007" lon="6.94466">
        <ele>412.2</ele>
        <time>2023-02-16T12:39:47.703Z</time>
      </trkpt>
      <trkpt lat="48.21974" lon="6.94452">
        <ele>412.7</ele>
        <time>2023-02-16T12:40:02.954Z</time>
      </trkpt>
      <trkpt lat="48.21963" lon="6.94448">
        <ele>412.9</ele>
        <time>2023-02-16T12:40:08.037Z</time>
      </trkpt>
      <trkpt lat="48.2193" lon="6.94434">
        <ele>413.3</ele>
        <time>2023-02-16T12:40:23.150Z</time>
      </trkpt>
      <trkpt lat="48.21909" lon="6.94424">
        <ele>413.4</ele>
        <time>2023-02-16T12:40:32.646Z</time>
      </trkpt>
      <trkpt lat="48.2189" lon="6.94416">
        <ele>413.9</ele>
        <time>2023-02-16T12:40:41.726Z</time>
      </trkpt>
      <trkpt lat="48.21841" lon="6.94396">
        <ele>414</ele>
        <time>2023-02-16T12:41:03.441Z</time>
      </trkpt>
      <trkpt lat="48.21802" lon="6.94378">
        <ele>414.1</ele>
        <time>2023-02-16T12:41:20.915Z</time>
      </trkpt>
      <trkpt lat="48.21764" lon="6.94363">
        <ele>415</ele>
        <time>2023-02-16T12:41:38.854Z</time>
      </trkpt>
      <trkpt lat="48.21717" lon="6.94343">
        <ele>415.2</ele>
        <time>2023-02-16T12:41:59.883Z</time>
      </trkpt>
      <trkpt lat="48.21707" lon="6.94339">
        <ele>415.5</ele>
        <time>2023-02-16T12:42:04.700Z</time>
      </trkpt>
      <trkpt lat="48.21694" lon="6.94328">
        <ele>415.8</ele>
        <time>2023-02-16T12:42:11.453Z</time>
      </trkpt>
      <trkpt lat="48.21681" lon="6.94322">
        <ele>415.8</ele>
        <time>2023-02-16T12:42:17.234Z</time>
      </trkpt>
      <trkpt lat="48.21676" lon="6.9432">
        <ele>415.8</ele>
        <time>2023-02-16T12:42:19.434Z</time>
      </trkpt>
      <trkpt lat="48.21672" lon="6.94318">
        <ele>415.9</ele>
        <time>2023-02-16T12:42:21.364Z</time>
      </trkpt>
      <trkpt lat="48.21637" lon="6.94307">
        <ele>416.1</ele>
        <time>2023-02-16T12:42:36.828Z</time>
      </trkpt>
      <trkpt lat="48.21628" lon="6.94304">
        <ele>416.4</ele>
        <time>2023-02-16T12:42:41.168Z</time>
      </trkpt>
      <trkpt lat="48.2162" lon="6.943">
        <ele>416.7</ele>
        <time>2023-02-16T12:42:45.177Z</time>
      </trkpt>
      <trkpt lat="48.21611" lon="6.94293">
        <ele>417</ele>
        <time>2023-02-16T12:42:49.904Z</time>
      </trkpt>
      <trkpt lat="48.21611" lon="6.94289">
        <ele>417</ele>
        <time>2023-02-16T12:42:51.037Z</time>
      </trkpt>
      <trkpt lat="48.2161" lon="6.94288">
        <ele>417</ele>
        <time>2023-02-16T12:42:51.548Z</time>
        <extensions>
          <visugpx:TrkExtension xmlns:visugpx="https://www.visugpx.com/editgpx/">
            <visugpx:node>23</visugpx:node>
            </visugpx:TrkExtension>
        </extensions>
      </trkpt>
      <trkpt lat="48.2161" lon="6.94286">
        <ele>417</ele>
        <time>2023-02-16T12:42:52.114Z</time>
      </trkpt>
      <trkpt lat="48.21608" lon="6.94283">
        <ele>417</ele>
        <time>2023-02-16T12:42:53.316Z</time>
      </trkpt>
      <trkpt lat="48.21607" lon="6.94281">
        <ele>417</ele>
        <time>2023-02-16T12:42:54.024Z</time>
      </trkpt>
      <trkpt lat="48.21605" lon="6.9428">
        <ele>417</ele>
        <time>2023-02-16T12:42:54.920Z</time>
      </trkpt>
      <trkpt lat="48.21611" lon="6.94266">
        <ele>417</ele>
        <time>2023-02-16T12:42:59.635Z</time>
      </trkpt>
      <trkpt lat="48.21623" lon="6.94237">
        <ele>416.8</ele>
        <time>2023-02-16T12:43:09.046Z</time>
      </trkpt>
      <trkpt lat="48.21632" lon="6.94216">
        <ele>417</ele>
        <time>2023-02-16T12:43:16.386Z</time>
      </trkpt>
      <trkpt lat="48.21641" lon="6.94194">
        <ele>417</ele>
        <time>2023-02-16T12:43:23.698Z</time>
      </trkpt>
      <trkpt lat="48.21653" lon="6.94168">
        <ele>417</ele>
        <time>2023-02-16T12:43:32.655Z</time>
      </trkpt>
      <trkpt lat="48.21656" lon="6.9416">
        <ele>417</ele>
        <time>2023-02-16T12:43:35.255Z</time>
      </trkpt>
      <trkpt lat="48.2166" lon="6.94142">
        <ele>417</ele>
        <time>2023-02-16T12:43:40.629Z</time>
      </trkpt>
      <trkpt lat="48.21656" lon="6.94139">
        <ele>417</ele>
        <time>2023-02-16T12:43:42.530Z</time>
      </trkpt>
      <trkpt lat="48.21652" lon="6.94137">
        <ele>417</ele>
        <time>2023-02-16T12:43:44.322Z</time>
        <extensions>
          <visugpx:TrkExtension xmlns:visugpx="https://www.visugpx.com/editgpx/">
            <visugpx:node>24</visugpx:node>
            </visugpx:TrkExtension>
        </extensions>
      </trkpt>
      <trkpt lat="48.21385" lon="6.94049">
        <ele>420</ele>
        <time>2023-02-16T12:45:44.533Z</time>
      </trkpt>
      <trkpt lat="48.21133" lon="6.93972">
        <ele>424</ele>
        <time>2023-02-16T12:47:39.256Z</time>
      </trkpt>
      <trkpt lat="48.20913" lon="6.94019">
        <ele>425.1</ele>
        <time>2023-02-16T12:49:15.163Z</time>
      </trkpt>
      <trkpt lat="48.20615" lon="6.94148">
        <ele>430</ele>
        <time>2023-02-16T12:51:33.628Z</time>
      </trkpt>
      <trkpt lat="48.19988" lon="6.94474">
        <ele>438.5</ele>
        <time>2023-02-16T12:56:27.114Z</time>
      </trkpt>
      <trkpt lat="48.18871" lon="6.95182">
        <ele>453</ele>
        <time>2023-02-16T13:05:22.000Z</time>
      </trkpt>
    </trkseg>
  </trk>
</gpx>